Observation data for Boys Ranch on 07/12/2018      Previous  Date  Next       Current Mesonet Observations  Soil Data  Daily Summary Page  Observations in Plain Language
KBY1 120500Z 17005KT 26/16 A301 RMK A01 T02570159  RH  055%=      5-min Rain = 0
KBY1 120501Z 17006KT 26/16 A301 RMK A01 T02560160  RH  055%=      5-min Rain = 0
KBY1 120502Z 17006KT 25/16 A301 RMK A01 T02540159  RH  055%=      5-min Rain = 0
KBY1 120503Z 17005KT 25/16 A301 RMK A01 T02530158  RH  056%=      5-min Rain = 0
KBY1 120504Z 18010KT 25/16 A301 RMK A01 T02530157  RH  055%=      5-min Rain = 0
KBY1 120505Z 18010KT 25/16 A301 RMK A01 T02530155  RH  055%=      5-min Rain = 0
KBY1 120506Z 18011G16KT 26/16 A301 RMK A01 T02560157  RH  054%=      5-min Rain = 0
KBY1 120507Z 17011KT 26/16 A301 RMK A01 T02580158  RH  054%=      5-min Rain = 0
KBY1 120508Z 17014KT 26/16 A301 RMK A01 T02590160  RH  054%=      5-min Rain = 0
KBY1 120509Z 17010KT 26/16 A301 RMK A01 T02600163  RH  055%=      5-min Rain = 0
KBY1 120510Z 17012KT 26/16 A301 RMK A01 T02590164  RH  056%=      5-min Rain = 0
KBY1 120511Z 16012KT 26/17 A301 RMK A01 T02580165  RH  056%=      5-min Rain = 0
KBY1 120512Z 16010KT 26/17 A301 RMK A01 T02580167  RH  057%=      5-min Rain = 0
KBY1 120513Z 16010KT 26/17 A301 RMK A01 T02570167  RH  058%=      5-min Rain = 0
KBY1 120514Z 16009KT 26/17 A301 RMK A01 T02560166  RH  057%=      5-min Rain = 0
KBY1 120515Z 17010KT 26/17 A301 RMK A01 T02560166  RH  058%=      5-min Rain = 0
KBY1 120516Z 17008KT 26/17 A301 RMK A01 T02550166  RH  058%=      5-min Rain = 0
KBY1 120517Z 17008KT 26/17 A301 RMK A01 T02550167  RH  058%=      5-min Rain = 0
KBY1 120518Z 16006KT 25/17 A301 RMK A01 T02540167  RH  059%=      5-min Rain = 0
KBY1 120519Z 17008KT 25/17 A301 RMK A01 T02530167  RH  059%=      5-min Rain = 0
KBY1 120520Z 17007KT 25/17 A301 RMK A01 T02530166  RH  059%=      5-min Rain = 0
KBY1 120521Z 17007KT 25/17 A301 RMK A01 T02520167  RH  059%=      5-min Rain = 0
KBY1 120522Z 17009KT 25/17 A301 RMK A01 T02520166  RH  059%=      5-min Rain = 0
KBY1 120523Z 17006KT 25/17 A301 RMK A01 T02520165  RH  059%=      5-min Rain = 0
KBY1 120524Z 17007KT 25/17 A301 RMK A01 T02520166  RH  059%=      5-min Rain = 0
KBY1 120525Z 18006KT 25/17 A301 RMK A01 T02520166  RH  059%=      5-min Rain = 0
KBY1 120526Z 18007KT 25/17 A301 RMK A01 T02520166  RH  059%=      5-min Rain = 0
KBY1 120527Z 17008KT 25/17 A301 RMK A01 T02510165  RH  059%=      5-min Rain = 0
KBY1 120528Z 18008KT 25/17 A301 RMK A01 T02510165  RH  059%=      5-min Rain = 0
KBY1 120529Z 18010KT 25/17 A301 RMK A01 T02510166  RH  059%=      5-min Rain = 0
KBY1 120530Z 18010KT 25/17 A301 RMK A01 T02500172  RH  062%=      5-min Rain = 0
KBY1 120531Z 17009KT 25/18 A301 RMK A01 T02460177  RH  065%=      5-min Rain = 0
KBY1 120532Z 17008KT 24/18 A301 RMK A01 T02420179  RH  068%=      5-min Rain = 0
KBY1 120533Z 17008KT 24/18 A301 RMK A01 T02380180  RH  070%=      5-min Rain = 0
KBY1 120534Z 17009KT 24/18 A301 RMK A01 T02350180  RH  071%=      5-min Rain = 0
KBY1 120535Z 18009KT 23/18 A301 RMK A01 T02340180  RH  072%=      5-min Rain = 0
KBY1 120536Z 18010KT 23/18 A3011 RMK A01 T02330181  RH  072%=      5-min Rain = 0
KBY1 120537Z 19011KT 23/18 A301 RMK A01 T02330180  RH  072%=      5-min Rain = 0
KBY1 120538Z 18009KT 23/18 A301 RMK A01 T02320181  RH  073%=      5-min Rain = 0
KBY1 120539Z 18008KT 23/18 A301 RMK A01 T02310181  RH  074%=      5-min Rain = 0.01
KBY1 120540Z 18009KT 23/18 A301 RMK A01 T02300179  RH  073%=      5-min Rain = 0
KBY1 120541Z 18008KT 23/18 A301 RMK A01 T02300180  RH  073%=      5-min Rain = 0
KBY1 120542Z 18007KT 23/18 A301 RMK A01 T02300181  RH  074%=      5-min Rain = 0.01
KBY1 120543Z 19006KT 23/18 A301 RMK A01 T02300183  RH  075%=      5-min Rain = 0
KBY1 120544Z 18006KT 23/18 A301 RMK A01 T02290183  RH  075%=      5-min Rain = 0
KBY1 120545Z 18005KT 23/18 A301 RMK A01 T02280184  RH  076%=      5-min Rain = 0
KBY1 120546Z 19004KT 23/18 A301 RMK A01 T02270184  RH  077%=      5-min Rain = 0
KBY1 120547Z 19004KT 23/19 A301 RMK A01 T02260185  RH  077%=      5-min Rain = 0
KBY1 120548Z 19004KT 23/19 A301 RMK A01 T02260185  RH  078%=      5-min Rain = 0.01
KBY1 120549Z 19004KT 23/19 A301 RMK A01 T02250187  RH  079%=      5-min Rain = 0
KBY1 120550Z 20005KT 23/19 A301 RMK A01 T02250186  RH  079%=      5-min Rain = 0
KBY1 120551Z 21005KT 23/19 A301 RMK A01 T02250188  RH  080%=      5-min Rain = 0
KBY1 120552Z 21006KT 22/19 A301 RMK A01 T02240190  RH  081%=      5-min Rain = 0
KBY1 120553Z 21007KT 22/19 A301 RMK A01 T02240187  RH  079%=      5-min Rain = 0
KBY1 120554Z 21010KT 23/18 A301 RMK A01 T02250180  RH  076%=      5-min Rain = 0
KBY1 120555Z 21009KT 23/18 A301 RMK A01 T02300179  RH  073%=      5-min Rain = 0
KBY1 120556Z 21010KT 23/18 A301 RMK A01 T02320176  RH  071%=      5-min Rain = 0
KBY1 120557Z 21010KT 23/18 A3011 RMK A01 T02340177  RH  070%=      5-min Rain = 0
KBY1 120558Z 22010KT 23/18 A3011 RMK A01 T02340175  RH  069%=      5-min Rain = 0
KBY1 120559Z 23009KT 24/18 A3011 RMK A01 T02350175  RH  069%=      5-min Rain = 0
KBY1 120600Z 22010KT 24/17 A3011 RMK A01 T02360173  RH  068%=      5-min Rain = 0
KBY1 120601Z 23009KT 24/18 A3011 RMK A01 T02370175  RH  068%=      5-min Rain = 0
KBY1 120602Z 22010KT 24/18 A3011 RMK A01 T02370176  RH  069%=      5-min Rain = 0
KBY1 120603Z 22009KT 24/18 A3011 RMK A01 T02360177  RH  069%=      5-min Rain = 0
KBY1 120604Z 22010KT 24/18 A3011 RMK A01 T02350175  RH  069%=      5-min Rain = 0
KBY1 120605Z 22009KT 24/17 A3011 RMK A01 T02350174  RH  069%=      5-min Rain = 0
KBY1 120606Z 22008KT 24/18 A3011 RMK A01 T02350176  RH  069%=      5-min Rain = 0
KBY1 120607Z 22008KT 23/18 A3011 RMK A01 T02340175  RH  070%=      5-min Rain = 0
KBY1 120608Z 21007KT 23/18 A3011 RMK A01 T02330175  RH  070%=      5-min Rain = 0
KBY1 120609Z 21007KT 23/18 A3011 RMK A01 T02330176  RH  071%=      5-min Rain = 0
KBY1 120610Z 22010KT 23/17 A3011 RMK A01 T02320174  RH  070%=      5-min Rain = 0
KBY1 120611Z 23009KT 23/17 A3011 RMK A01 T02340174  RH  069%=      5-min Rain = 0
KBY1 120612Z 25008KT 24/18 A3011 RMK A01 T02350176  RH  070%=      5-min Rain = 0
KBY1 120613Z 26009KT 23/18 A3011 RMK A01 T02340176  RH  070%=      5-min Rain = 0
KBY1 120614Z 25011KT 23/17 A3011 RMK A01 T02330171  RH  068%=      5-min Rain = 0
KBY1 120615Z 25009KT 23/17 A3011 RMK A01 T02340167  RH  066%=      5-min Rain = 0
KBY1 120616Z 26008KT 24/17 A3011 RMK A01 T02350172  RH  068%=      5-min Rain = 0
KBY1 120617Z 26007KT 24/17 A3011 RMK A01 T02350168  RH  066%=      5-min Rain = 0
KBY1 120618Z 24005KT 24/17 A3011 RMK A01 T02370169  RH  066%=      5-min Rain = 0
KBY1 120619Z 22005KT 24/17 A3011 RMK A01 T02370171  RH  066%=      5-min Rain = 0
KBY1 120620Z 25003KT 24/17 A3011 RMK A01 T02370169  RH  066%=      5-min Rain = 0
KBY1 120621Z 25003KT 24/17 A3011 RMK A01 T02370171  RH  066%=      5-min Rain = 0
KBY1 120622Z 23003KT 24/17 A3011 RMK A01 T02380173  RH  067%=      5-min Rain = 0
KBY1 120623Z 24003KT 24/17 A3011 RMK A01 T02370171  RH  067%=      5-min Rain = 0
KBY1 120624Z 23003KT 24/17 A3011 RMK A01 T02370170  RH  066%=      5-min Rain = 0
KBY1 120625Z 25003KT 24/17 A3011 RMK A01 T02380170  RH  065%=      5-min Rain = 0
KBY1 120626Z 24003KT 24/17 A3011 RMK A01 T02390173  RH  067%=      5-min Rain = 0
KBY1 120627Z 25003KT 24/17 A3011 RMK A01 T02390170  RH  065%=      5-min Rain = 0
KBY1 120628Z 24003KT 24/17 A3011 RMK A01 T02400169  RH  065%=      5-min Rain = 0
KBY1 120629Z 22002KT 24/17 A3011 RMK A01 T02400172  RH  065%=      5-min Rain = 0
KBY1 120630Z 25003KT 24/18 A3011 RMK A01 T02410177  RH  067%=      5-min Rain = 0
KBY1 120631Z 23003KT 24/18 A3011 RMK A01 T02410176  RH  067%=      5-min Rain = 0
KBY1 120632Z 23004KT 24/17 A3011 RMK A01 T02410172  RH  065%=      5-min Rain = 0
KBY1 120633Z 21007KT 24/17 A3011 RMK A01 T02410167  RH  063%=      5-min Rain = 0
KBY1 120634Z 21007KT 24/17 A3011 RMK A01 T02430167  RH  063%=      5-min Rain = 0
KBY1 120635Z 21007KT 24/16 A3011 RMK A01 T02430162  RH  061%=      5-min Rain = 0
KBY1 120636Z 22005KT 24/17 A3011 RMK A01 T02440166  RH  062%=      5-min Rain = 0
KBY1 120637Z 22009KT 24/16 A3011 RMK A01 T02430162  RH  060%=      5-min Rain = 0
KBY1 120638Z 21009KT 24/16 A3011 RMK A01 T02430156  RH  058%=      5-min Rain = 0
KBY1 120639Z 22009KT 24/16 A3011 RMK A01 T02430157  RH  059%=      5-min Rain = 0
KBY1 120640Z 23012KT 24/16 A3011 RMK A01 T02420157  RH  059%=      5-min Rain = 0
KBY1 120641Z 25011KT 24/16 A3011 RMK A01 T02420161  RH  060%=      5-min Rain = 0
KBY1 120642Z 25008G13KT 24/16 A3011 RMK A01 T02420161  RH  061%=      5-min Rain = 0
KBY1 120643Z 26008KT 24/16 A3011 RMK A01 T02420162  RH  061%=      5-min Rain = 0
KBY1 120644Z 26007KT 24/16 A3011 RMK A01 T02400161  RH  061%=      5-min Rain = 0
KBY1 120645Z 26006KT 24/16 A3011 RMK A01 T02380160  RH  061%=      5-min Rain = 0
KBY1 120646Z 27007KT 24/16 A3011 RMK A01 T02360160  RH  062%=      5-min Rain = 0
KBY1 120647Z 27004KT 24/16 A3011 RMK A01 T02360160  RH  062%=      5-min Rain = 0
KBY1 120648Z 26003KT 24/16 A3011 RMK A01 T02350161  RH  063%=      5-min Rain = 0
KBY1 120649Z 24003KT 23/16 A3011 RMK A01 T02340163  RH  064%=      5-min Rain = 0
KBY1 120650Z 19003KT 23/16 A3011 RMK A01 T02330162  RH  064%=      5-min Rain = 0.01
KBY1 120651Z 24002KT 23/16 A3011 RMK A01 T02330161  RH  064%=      5-min Rain = 0
KBY1 120652Z 22004KT 23/16 A3011 RMK A01 T02330157  RH  062%=      5-min Rain = 0
KBY1 120653Z 23003KT 23/16 A3011 RMK A01 T02340158  RH  062%=      5-min Rain = 0
KBY1 120654Z 17003KT 23/16 A3011 RMK A01 T02340157  RH  062%=      5-min Rain = 0
KBY1 120655Z 25002KT 23/16 A3011 RMK A01 T02340159  RH  063%=      5-min Rain = 0
KBY1 120656Z 21005KT 24/16 A3011 RMK A01 T02350158  RH  062%=      5-min Rain = 0
KBY1 120657Z 21002KT 24/16 A3011 RMK A01 T02360157  RH  061%=      5-min Rain = 0
KBY1 120658Z 24002KT 24/16 A3011 RMK A01 T02360157  RH  061%=      5-min Rain = 0
KBY1 120659Z 28002KT 24/16 A3011 RMK A01 T02370157  RH  061%=      5-min Rain = 0
KBY1 120700Z 27003KT 24/16 A3011 RMK A01 T02360157  RH  061%=      5-min Rain = 0
KBY1 120701Z 23005KT 24/15 A3011 RMK A01 T02370153  RH  059%=      5-min Rain = 0
KBY1 120702Z 22004KT 24/16 A3011 RMK A01 T02380156  RH  060%=      5-min Rain = 0
KBY1 120703Z 26002KT 24/16 A3011 RMK A01 T02380159  RH  061%=      5-min Rain = 0
KBY1 120704Z 24002KT 24/16 A3011 RMK A01 T02380159  RH  061%=      5-min Rain = 0
KBY1 120705Z 33004KT 24/17 A3011 RMK A01 T02370167  RH  065%=      5-min Rain = 0
KBY1 120706Z 35006KT 24/17 A3011 RMK A01 T02350169  RH  066%=      5-min Rain = 0
KBY1 120707Z 35005KT 23/17 A3011 RMK A01 T02310165  RH  066%=      5-min Rain = 0
KBY1 120708Z 34004KT 23/17 A3011 RMK A01 T02290169  RH  069%=      5-min Rain = 0
KBY1 120709Z 34006KT 23/17 A3011 RMK A01 T02280169  RH  069%=      5-min Rain = 0
KBY1 120710Z 33006KT 23/16 A3011 RMK A01 T02270164  RH  067%=      5-min Rain = 0
KBY1 120711Z 34005KT 23/17 A3011 RMK A01 T02280166  RH  068%=      5-min Rain = 0
KBY1 120712Z 35006KT 23/16 A3011 RMK A01 T02280164  RH  067%=      5-min Rain = 0
KBY1 120713Z 01007KT 23/16 A3011 RMK A01 T02290164  RH  067%=      5-min Rain = 0
KBY1 120714Z 02006KT 23/17 A3011 RMK A01 T02290165  RH  067%=      5-min Rain = 0
KBY1 120715Z 01005KT 23/16 A3011 RMK A01 T02300160  RH  065%=      5-min Rain = 0
KBY1 120716Z 03004KT 23/17 A3011 RMK A01 T02310165  RH  066%=      5-min Rain = 0
KBY1 120717Z 04003KT 23/16 A3011 RMK A01 T02310162  RH  065%=      5-min Rain = 0
KBY1 120718Z 04004KT 23/17 A3012 RMK A01 T02320166  RH  066%=      5-min Rain = 0
KBY1 120719Z 04003KT 23/17 A3012 RMK A01 T02320166  RH  066%=      5-min Rain = 0
KBY1 120720Z 04003KT 23/17 A3012 RMK A01 T02320165  RH  066%=      5-min Rain = 0
KBY1 120721Z 03003KT 23/16 A3012 RMK A01 T02320163  RH  065%=      5-min Rain = 0
KBY1 120722Z 04001KT 23/16 A3012 RMK A01 T02320162  RH  065%=      5-min Rain = 0
KBY1 120723Z 03001KT 23/16 A3012 RMK A01 T02330158  RH  063%=      5-min Rain = 0
KBY1 120724Z 04002KT 23/16 A3012 RMK A01 T02340162  RH  064%=      5-min Rain = 0
KBY1 120725Z 07003KT 23/16 A3012 RMK A01 T02340164  RH  065%=      5-min Rain = 0
KBY1 120726Z 08003KT 23/16 A3012 RMK A01 T02340162  RH  064%=      5-min Rain = 0
KBY1 120727Z 08004KT 24/17 A3012 RMK A01 T02350168  RH  066%=      5-min Rain = 0
KBY1 120728Z 11003KT 23/17 A3012 RMK A01 T02340169  RH  067%=      5-min Rain = 0
KBY1 120729Z 11003KT 23/17 A3012 RMK A01 T02330174  RH  069%=      5-min Rain = 0
KBY1 120730Z 11003KT 23/18 A3012 RMK A01 T02320175  RH  070%=      5-min Rain = 0
KBY1 120731Z 12003KT 23/17 A3012 RMK A01 T02300174  RH  070%=      5-min Rain = 0
KBY1 120732Z 14003KT 23/18 A3012 RMK A01 T02290178  RH  073%=      5-min Rain = 0
KBY1 120733Z 14002KT 23/18 A3012 RMK A01 T02270177  RH  073%=      5-min Rain = 0
KBY1 120734Z 14002KT 23/17 A3012 RMK A01 T02260174  RH  073%=      5-min Rain = 0
KBY1 120735Z 10002KT 23/18 A3012 RMK A01 T02250175  RH  073%=      5-min Rain = 0
KBY1 120736Z 11000KT 23/18 A3012 RMK A01 T02260179  RH  075%=      5-min Rain = 0
KBY1 120737Z 14001KT 23/18 A3012 RMK A01 T02260182  RH  076%=      5-min Rain = 0
KBY1 120738Z 04001KT 23/18 A3011 RMK A01 T02250182  RH  077%=      5-min Rain = 0
KBY1 120739Z 02002KT 23/18 A3011 RMK A01 T02250179  RH  075%=      5-min Rain = 0
KBY1 120740Z 28000KT 23/17 A3011 RMK A01 T02250168  RH  070%=      5-min Rain = 0
KBY1 120741Z 09000KT 23/17 A3011 RMK A01 T02260167  RH  069%=      5-min Rain = 0
KBY1 120742Z 00000KT 23/17 A3011 RMK A01 T02270171  RH  070%=      5-min Rain = 0
KBY1 120743Z 00000KT 23/17 A3012 RMK A01 T02280170  RH  070%=      5-min Rain = 0
KBY1 120744Z 01000KT 23/17 A3012 RMK A01 T02280172  RH  070%=      5-min Rain = 0
KBY1 120745Z 03001KT 23/17 A3012 RMK A01 T02290172  RH  070%=      5-min Rain = 0
KBY1 120746Z 02001KT 23/16 A3012 RMK A01 T02300162  RH  065%=      5-min Rain = 0
KBY1 120747Z 02001KT 23/16 A3012 RMK A01 T02320160  RH  064%=      5-min Rain = 0
KBY1 120748Z 32001KT 23/16 A3012 RMK A01 T02340159  RH  063%=      5-min Rain = 0
KBY1 120749Z 33000KT 24/16 A3012 RMK A01 T02350161  RH  063%=      5-min Rain = 0
KBY1 120750Z 36002KT 24/16 A3012 RMK A01 T02360162  RH  063%=      5-min Rain = 0
KBY1 120751Z 34002KT 24/17 A3012 RMK A01 T02360169  RH  066%=      5-min Rain = 0
KBY1 120752Z 01004KT 24/17 A3011 RMK A01 T02350171  RH  067%=      5-min Rain = 0
KBY1 120753Z 04003KT 23/17 A3011 RMK A01 T02340173  RH  069%=      5-min Rain = 0
KBY1 120754Z 04003KT 23/18 A3011 RMK A01 T02320178  RH  072%=      5-min Rain = 0
KBY1 120755Z 05006KT 23/18 A3011 RMK A01 T02290175  RH  071%=      5-min Rain = 0
KBY1 120756Z 05005KT 23/18 A3011 RMK A01 T02280178  RH  073%=      5-min Rain = 0
KBY1 120757Z 03004KT 23/18 A3011 RMK A01 T02260179  RH  075%=      5-min Rain = 0
KBY1 120758Z 03004KT 23/18 A3011 RMK A01 T02250177  RH  074%=      5-min Rain = 0
KBY1 120759Z 02004KT 22/18 A3011 RMK A01 T02240175  RH  074%=      5-min Rain = 0
KBY1 120800Z 01004KT 23/18 A3011 RMK A01 T02250177  RH  074%=      5-min Rain = 0
KBY1 120801Z 35004KT 22/18 A3011 RMK A01 T02240175  RH  074%=      5-min Rain = 0
KBY1 120802Z 00005KT 22/17 A3011 RMK A01 T02240173  RH  073%=      5-min Rain = 0
KBY1 120803Z 36005KT 22/18 A3011 RMK A01 T02240176  RH  074%=      5-min Rain = 0
KBY1 120804Z 36006KT 22/17 A3011 RMK A01 T02240174  RH  073%=      5-min Rain = 0
KBY1 120805Z 35005KT 22/18 A3011 RMK A01 T02240175  RH  074%=      5-min Rain = 0
KBY1 120806Z 35006KT 22/18 A3011 RMK A01 T02240176  RH  074%=      5-min Rain = 0
KBY1 120807Z 35006KT 22/17 A3011 RMK A01 T02240172  RH  072%=      5-min Rain = 0
KBY1 120808Z 36004KT 22/17 A3011 RMK A01 T02240174  RH  073%=      5-min Rain = 0
KBY1 120809Z 34003KT 22/17 A3011 RMK A01 T02240173  RH  073%=      5-min Rain = 0
KBY1 120810Z 33002KT 22/17 A3011 RMK A01 T02240170  RH  071%=      5-min Rain = 0
KBY1 120811Z 25002KT 22/16 A3011 RMK A01 T02240164  RH  069%=      5-min Rain = 0
KBY1 120812Z 26003KT 23/16 A3011 RMK A01 T02260162  RH  067%=      5-min Rain = 0
KBY1 120813Z 21003KT 23/16 A3011 RMK A01 T02280156  RH  064%=      5-min Rain = 0
KBY1 120814Z 20005KT 23/15 A301 RMK A01 T02310154  RH  062%=      5-min Rain = 0
KBY1 120815Z 21004KT 23/16 A3011 RMK A01 T02320163  RH  065%=      5-min Rain = 0
KBY1 120816Z 19006KT 23/16 A301 RMK A01 T02320155  RH  062%=      5-min Rain = 0
KBY1 120817Z 19006KT 23/15 A3011 RMK A01 T02320153  RH  061%=      5-min Rain = 0
KBY1 120818Z 19005KT 23/15 A3011 RMK A01 T02330152  RH  060%=      5-min Rain = 0
KBY1 120819Z 19005KT 23/16 A3011 RMK A01 T02340155  RH  061%=      5-min Rain = 0
KBY1 120820Z 21005KT 23/16 A3011 RMK A01 T02340155  RH  061%=      5-min Rain = 0
KBY1 120821Z 19004KT 23/16 A3011 RMK A01 T02330156  RH  062%=      5-min Rain = 0
KBY1 120822Z 20002KT 23/16 A3011 RMK A01 T02320160  RH  064%=      5-min Rain = 0
KBY1 120823Z 28000KT 23/16 A3011 RMK A01 T02310163  RH  065%=      5-min Rain = 0
KBY1 120824Z 03002KT 23/16 A3011 RMK A01 T02300164  RH  066%=      5-min Rain = 0
KBY1 120825Z 04006KT 23/17 A3011 RMK A01 T02290168  RH  069%=      5-min Rain = 0
KBY1 120826Z 04005KT 23/17 A3011 RMK A01 T02270171  RH  070%=      5-min Rain = 0
KBY1 120827Z 05004KT 23/17 A3011 RMK A01 T02260172  RH  071%=      5-min Rain = 0
KBY1 120828Z 06004KT 23/17 A3011 RMK A01 T02250174  RH  073%=      5-min Rain = 0
KBY1 120829Z 06005KT 22/17 A3011 RMK A01 T02230174  RH  074%=      5-min Rain = 0
KBY1 120830Z 07003KT 22/18 A3011 RMK A01 T02220175  RH  075%=      5-min Rain = 0
KBY1 120831Z 07004KT 22/18 A3011 RMK A01 T02210176  RH  076%=      5-min Rain = 0
KBY1 120832Z 08004KT 22/18 A3011 RMK A01 T02200175  RH  075%=      5-min Rain = 0
KBY1 120833Z 09005KT 22/17 A3011 RMK A01 T02200174  RH  075%=      5-min Rain = 0
KBY1 120834Z 10004KT 22/18 A3011 RMK A01 T02200175  RH  076%=      5-min Rain = 0
KBY1 120835Z 09004KT 22/18 A3011 RMK A01 T02200177  RH  076%=      5-min Rain = 0
KBY1 120836Z 08003KT 22/17 A3011 RMK A01 T02200173  RH  075%=      5-min Rain = 0
KBY1 120837Z 07002KT 22/17 A3011 RMK A01 T02210167  RH  072%=      5-min Rain = 0
KBY1 120838Z 02001KT 22/17 A301 RMK A01 T02220171  RH  073%=      5-min Rain = 0
KBY1 120839Z 03001KT 22/17 A301 RMK A01 T02230170  RH  072%=      5-min Rain = 0
KBY1 120840Z 03002KT 22/17 A301 RMK A01 T02230174  RH  074%=      5-min Rain = 0
KBY1 120841Z 01001KT 22/18 A301 RMK A01 T02240179  RH  076%=      5-min Rain = 0
KBY1 120842Z 03001KT 22/18 A301 RMK A01 T02220179  RH  076%=      5-min Rain = 0
KBY1 120843Z 03001KT 22/17 A301 RMK A01 T02220171  RH  073%=      5-min Rain = 0
KBY1 120844Z 10001KT 22/17 A301 RMK A01 T02220171  RH  073%=      5-min Rain = 0
KBY1 120845Z 09002KT 22/18 A301 RMK A01 T02220176  RH  075%=      5-min Rain = 0
KBY1 120846Z 08003KT 22/17 A301 RMK A01 T02220172  RH  073%=      5-min Rain = 0
KBY1 120847Z 07004KT 22/17 A301 RMK A01 T02230172  RH  073%=      5-min Rain = 0
KBY1 120848Z 07004KT 22/18 A301 RMK A01 T02230175  RH  074%=      5-min Rain = 0
KBY1 120849Z 08004KT 22/18 A301 RMK A01 T02230177  RH  075%=      5-min Rain = 0
KBY1 120850Z 10004KT 22/18 A3011 RMK A01 T02220176  RH  075%=      5-min Rain = 0
KBY1 120851Z 10003KT 22/17 A3011 RMK A01 T02220174  RH  074%=      5-min Rain = 0
KBY1 120852Z 09003KT 22/18 A3011 RMK A01 T02220176  RH  075%=      5-min Rain = 0
KBY1 120853Z 11002KT 22/18 A3011 RMK A01 T02210177  RH  076%=      5-min Rain = 0
KBY1 120854Z 12003KT 22/17 A3011 RMK A01 T02210174  RH  075%=      5-min Rain = 0
KBY1 120855Z 11003KT 22/17 A3011 RMK A01 T02210171  RH  073%=      5-min Rain = 0
KBY1 120856Z 10003KT 22/17 A3011 RMK A01 T02210168  RH  072%=      5-min Rain = 0
KBY1 120857Z 13004KT 22/17 A3011 RMK A01 T02210169  RH  072%=      5-min Rain = 0
KBY1 120858Z 12005KT 22/17 A3011 RMK A01 T02210169  RH  072%=      5-min Rain = 0
KBY1 120859Z 11006KT 22/17 A3011 RMK A01 T02200168  RH  072%=      5-min Rain = 0
KBY1 120900Z 12006KT 22/17 A3011 RMK A01 T02200168  RH  072%=      5-min Rain = 0
KBY1 120901Z 12005KT 22/17 A3011 RMK A01 T02200169  RH  073%=      5-min Rain = 0
KBY1 120902Z 14006KT 22/17 A3011 RMK A01 T02200169  RH  073%=      5-min Rain = 0
KBY1 120903Z 15006KT 22/17 A3011 RMK A01 T02190168  RH  073%=      5-min Rain = 0
KBY1 120904Z 15006KT 22/17 A3011 RMK A01 T02190168  RH  073%=      5-min Rain = 0
KBY1 120905Z 15006KT 22/17 A3011 RMK A01 T02190169  RH  073%=      5-min Rain = 0
KBY1 120906Z 15006KT 22/17 A3011 RMK A01 T02190169  RH  074%=      5-min Rain = 0
KBY1 120907Z 16005KT 22/17 A3011 RMK A01 T02180169  RH  074%=      5-min Rain = 0
KBY1 120908Z 15005KT 22/17 A301 RMK A01 T02180168  RH  073%=      5-min Rain = 0
KBY1 120909Z 15003KT 22/17 A301 RMK A01 T02180167  RH  073%=      5-min Rain = 0
KBY1 120910Z 15002KT 22/17 A301 RMK A01 T02180168  RH  073%=      5-min Rain = 0
KBY1 120911Z 15001KT 22/17 A301 RMK A01 T02180168  RH  073%=      5-min Rain = 0
KBY1 120912Z 19001KT 22/17 A301 RMK A01 T02180170  RH  074%=      5-min Rain = 0
KBY1 120913Z 18001KT 22/17 A301 RMK A01 T02180172  RH  075%=      5-min Rain = 0
KBY1 120914Z 20001KT 22/17 A301 RMK A01 T02180170  RH  074%=      5-min Rain = 0
KBY1 120915Z 19000KT 22/17 A301 RMK A01 T02180170  RH  074%=      5-min Rain = 0
KBY1 120916Z 00000KT 22/17 A301 RMK A01 T02170170  RH  074%=      5-min Rain = 0
KBY1 120917Z 02000KT 22/17 A301 RMK A01 T02170171  RH  075%=      5-min Rain = 0
KBY1 120918Z 02002KT 22/17 A301 RMK A01 T02170171  RH  075%=      5-min Rain = 0
KBY1 120919Z 03003KT 22/17 A3011 RMK A01 T02170172  RH  075%=      5-min Rain = 0
KBY1 120920Z 04003KT 22/17 A3011 RMK A01 T02170172  RH  075%=      5-min Rain = 0
KBY1 120921Z 02003KT 22/17 A3011 RMK A01 T02170169  RH  074%=      5-min Rain = 0
KBY1 120922Z 01003KT 22/17 A3011 RMK A01 T02170168  RH  074%=      5-min Rain = 0
KBY1 120923Z 02003KT 22/17 A3011 RMK A01 T02180171  RH  075%=      5-min Rain = 0
KBY1 120924Z 02003KT 22/17 A3011 RMK A01 T02180169  RH  074%=      5-min Rain = 0
KBY1 120925Z 01002KT 22/17 A3011 RMK A01 T02180168  RH  073%=      5-min Rain = 0
KBY1 120926Z 01002KT 22/17 A3011 RMK A01 T02180167  RH  073%=      5-min Rain = 0
KBY1 120927Z 00002KT 22/17 A3011 RMK A01 T02190166  RH  072%=      5-min Rain = 0
KBY1 120928Z 35001KT 22/17 A3011 RMK A01 T02190169  RH  073%=      5-min Rain = 0
KBY1 120929Z 02001KT 22/17 A301 RMK A01 T02190170  RH  074%=      5-min Rain = 0
KBY1 120930Z 04000KT 22/17 A301 RMK A01 T02190167  RH  072%=      5-min Rain = 0
KBY1 120931Z 00000KT 22/17 A301 RMK A01 T02190168  RH  073%=      5-min Rain = 0
KBY1 120932Z 29001KT 22/17 A301 RMK A01 T02190168  RH  073%=      5-min Rain = 0
KBY1 120933Z 33001KT 22/17 A301 RMK A01 T02190167  RH  072%=      5-min Rain = 0
KBY1 120934Z 00000KT 22/17 A301 RMK A01 T02190165  RH  071%=      5-min Rain = 0
KBY1 120935Z 11001KT 22/16 A3011 RMK A01 T02190164  RH  071%=      5-min Rain = 0
KBY1 120936Z 08001KT 22/16 A301 RMK A01 T02200159  RH  068%=      5-min Rain = 0
KBY1 120937Z 18002KT 22/16 A3011 RMK A01 T02210158  RH  067%=      5-min Rain = 0
KBY1 120938Z 19002KT 22/16 A3011 RMK A01 T02230157  RH  066%=      5-min Rain = 0
KBY1 120939Z 23001KT 23/17 A3011 RMK A01 T02250169  RH  071%=      5-min Rain = 0
KBY1 120940Z 23004KT 22/17 A3011 RMK A01 T02230170  RH  072%=      5-min Rain = 0
KBY1 120941Z 21003KT 22/17 A3011 RMK A01 T02200169  RH  073%=      5-min Rain = 0
KBY1 120942Z 24004KT 22/17 A301 RMK A01 T02190169  RH  073%=      5-min Rain = 0
KBY1 120943Z 27004KT 22/17 A301 RMK A01 T02180170  RH  074%=      5-min Rain = 0
KBY1 120944Z 29005KT 22/17 A301 RMK A01 T02170169  RH  074%=      5-min Rain = 0
KBY1 120945Z 28006KT 22/17 A301 RMK A01 T02170167  RH  073%=      5-min Rain = 0
KBY1 120946Z 29004KT 22/16 A301 RMK A01 T02180164  RH  071%=      5-min Rain = 0
KBY1 120947Z 28002KT 22/17 A301 RMK A01 T02200165  RH  071%=      5-min Rain = 0
KBY1 120948Z 28002KT 22/16 A301 RMK A01 T02200164  RH  070%=      5-min Rain = 0
KBY1 120949Z 28003KT 22/16 A301 RMK A01 T02210162  RH  069%=      5-min Rain = 0
KBY1 120950Z 28004KT 22/16 A301 RMK A01 T02220161  RH  069%=      5-min Rain = 0
KBY1 120951Z 30005KT 22/16 A301 RMK A01 T02220163  RH  069%=      5-min Rain = 0
KBY1 120952Z 30006KT 22/16 A301 RMK A01 T02230162  RH  069%=      5-min Rain = 0
KBY1 120953Z 29006KT 22/16 A3011 RMK A01 T02230162  RH  068%=      5-min Rain = 0
KBY1 120954Z 29006KT 22/16 A301 RMK A01 T02230160  RH  068%=      5-min Rain = 0
KBY1 120955Z 30006KT 22/16 A301 RMK A01 T02230158  RH  067%=      5-min Rain = 0
KBY1 120956Z 30005KT 22/16 A301 RMK A01 T02240160  RH  067%=      5-min Rain = 0
KBY1 120957Z 30006KT 22/16 A301 RMK A01 T02240160  RH  067%=      5-min Rain = 0
KBY1 120958Z 30006KT 22/16 A301 RMK A01 T02230161  RH  068%=      5-min Rain = 0
KBY1 120959Z 28005KT 22/16 A301 RMK A01 T02230158  RH  067%=      5-min Rain = 0
KBY1 121000Z 28005KT 22/16 A301 RMK A01 T02230157  RH  066%=      5-min Rain = 0
KBY1 121001Z 28004KT 22/16 A301 RMK A01 T02230158  RH  067%=      5-min Rain = 0
KBY1 121002Z 30004KT 22/16 A301 RMK A01 T02230157  RH  066%=      5-min Rain = 0
KBY1 121003Z 30004KT 22/16 A301 RMK A01 T02230157  RH  066%=      5-min Rain = 0
KBY1 121004Z 30003KT 22/16 A301 RMK A01 T02240157  RH  066%=      5-min Rain = 0
KBY1 121005Z 30003KT 22/16 A301 RMK A01 T02230160  RH  067%=      5-min Rain = 0
KBY1 121006Z 31003KT 22/16 A301 RMK A01 T02230160  RH  067%=      5-min Rain = 0
KBY1 121007Z 32004KT 22/16 A301 RMK A01 T02230160  RH  068%=      5-min Rain = 0
KBY1 121008Z 33003KT 22/16 A301 RMK A01 T02230160  RH  068%=      5-min Rain = 0
KBY1 121009Z 34003KT 22/16 A301 RMK A01 T02230162  RH  069%=      5-min Rain = 0
KBY1 121010Z 35003KT 22/16 A301 RMK A01 T02220160  RH  068%=      5-min Rain = 0
KBY1 121011Z 36002KT 22/16 A301 RMK A01 T02220160  RH  068%=      5-min Rain = 0
KBY1 121012Z 35002KT 22/16 A301 RMK A01 T02220161  RH  069%=      5-min Rain = 0
KBY1 121013Z 33002KT 22/16 A301 RMK A01 T02220163  RH  069%=      5-min Rain = 0
KBY1 121014Z 32002KT 22/16 A301 RMK A01 T02220163  RH  069%=      5-min Rain = 0
KBY1 121015Z 34002KT 22/17 A301 RMK A01 T02220165  RH  070%=      5-min Rain = 0
KBY1 121016Z 35002KT 22/16 A301 RMK A01 T02220164  RH  070%=      5-min Rain = 0
KBY1 121017Z 04001KT 22/17 A301 RMK A01 T02210165  RH  070%=      5-min Rain = 0
KBY1 121018Z 05001KT 22/16 A301 RMK A01 T02210164  RH  070%=      5-min Rain = 0
KBY1 121019Z 05001KT 22/16 A301 RMK A01 T02210162  RH  069%=      5-min Rain = 0
KBY1 121020Z 05001KT 22/16 A301 RMK A01 T02210158  RH  067%=      5-min Rain = 0
KBY1 121021Z 11001KT 22/16 A301 RMK A01 T02220160  RH  068%=      5-min Rain = 0
KBY1 121022Z 16003KT 22/16 A301 RMK A01 T02220163  RH  069%=      5-min Rain = 0
KBY1 121023Z 17006KT 22/15 A301 RMK A01 T02220154  RH  066%=      5-min Rain = 0
KBY1 121024Z 17006KT 22/15 A301 RMK A01 T02230151  RH  063%=      5-min Rain = 0
KBY1 121025Z 14005KT 23/16 A301 RMK A01 T02260156  RH  065%=      5-min Rain = 0
KBY1 121026Z 17005KT 23/15 A301 RMK A01 T02260154  RH  064%=      5-min Rain = 0
KBY1 121027Z 18003KT 23/16 A301 RMK A01 T02260156  RH  064%=      5-min Rain = 0
KBY1 121028Z 17006KT 23/16 A301 RMK A01 T02260157  RH  065%=      5-min Rain = 0
KBY1 121029Z 17005G10KT 23/16 A301 RMK A01 T02250155  RH  065%=      5-min Rain = 0
KBY1 121030Z 19005G10KT 22/16 A301 RMK A01 T02240156  RH  065%=      5-min Rain = 0
KBY1 121031Z 20003KT 23/16 A3011 RMK A01 T02250155  RH  065%=      5-min Rain = 0
KBY1 121032Z 21001KT 22/15 A301 RMK A01 T02240154  RH  064%=      5-min Rain = 0
KBY1 121033Z 20002KT 23/15 A3011 RMK A01 T02250154  RH  064%=      5-min Rain = 0
KBY1 121034Z 21001KT 23/15 A3011 RMK A01 T02250154  RH  064%=      5-min Rain = 0
KBY1 121035Z 21002KT 23/16 A3011 RMK A01 T02260155  RH  064%=      5-min Rain = 0
KBY1 121036Z 23003KT 23/16 A3011 RMK A01 T02250155  RH  064%=      5-min Rain = 0
KBY1 121037Z 23002KT 23/16 A3011 RMK A01 T02260155  RH  064%=      5-min Rain = 0
KBY1 121038Z 26002KT 23/16 A3011 RMK A01 T02260155  RH  064%=      5-min Rain = 0
KBY1 121039Z 23006KT 23/16 A3011 RMK A01 T02260155  RH  064%=      5-min Rain = 0
KBY1 121040Z 25005KT 23/15 A3011 RMK A01 T02250154  RH  064%=      5-min Rain = 0
KBY1 121041Z 25006KT 23/15 A3011 RMK A01 T02250154  RH  064%=      5-min Rain = 0
KBY1 121042Z 26003KT 23/15 A3011 RMK A01 T02260153  RH  064%=      5-min Rain = 0
KBY1 121043Z 25008KT 23/15 A3011 RMK A01 T02260153  RH  064%=      5-min Rain = 0
KBY1 121044Z 26007KT 23/15 A3011 RMK A01 T02260154  RH  064%=      5-min Rain = 0
KBY1 121045Z 24007KT 23/15 A3011 RMK A01 T02260154  RH  064%=      5-min Rain = 0
KBY1 121046Z 23007KT 23/16 A3011 RMK A01 T02250155  RH  064%=      5-min Rain = 0
KBY1 121047Z 24008KT 23/15 A3011 RMK A01 T02250154  RH  064%=      5-min Rain = 0
KBY1 121048Z 24007KT 22/15 A3011 RMK A01 T02240153  RH  064%=      5-min Rain = 0
KBY1 121049Z 26006KT 23/15 A3011 RMK A01 T02250152  RH  063%=      5-min Rain = 0
KBY1 121050Z 25004KT 23/16 A3011 RMK A01 T02260155  RH  064%=      5-min Rain = 0
KBY1 121051Z 23006KT 23/16 A3011 RMK A01 T02250155  RH  065%=      5-min Rain = 0
KBY1 121052Z 25005KT 23/16 A3011 RMK A01 T02250155  RH  065%=      5-min Rain = 0
KBY1 121053Z 24006KT 22/16 A3011 RMK A01 T02240156  RH  065%=      5-min Rain = 0
KBY1 121054Z 24006KT 22/16 A3011 RMK A01 T02240156  RH  066%=      5-min Rain = 0
KBY1 121055Z 25007KT 22/16 A3011 RMK A01 T02230157  RH  066%=      5-min Rain = 0
KBY1 121056Z 25007KT 22/16 A3011 RMK A01 T02230157  RH  066%=      5-min Rain = 0
KBY1 121057Z 25006KT 22/16 A3011 RMK A01 T02220157  RH  067%=      5-min Rain = 0
KBY1 121058Z 24007KT 22/16 A3011 RMK A01 T02220157  RH  067%=      5-min Rain = 0
KBY1 121059Z 24006KT 22/16 A3011 RMK A01 T02220158  RH  067%=      5-min Rain = 0
KBY1 121100Z 23006KT 22/16 A3011 RMK A01 T02210158  RH  068%=      5-min Rain = 0
KBY1 121101Z 22008KT 22/16 A3011 RMK A01 T02210158  RH  067%=      5-min Rain = 0
KBY1 121102Z 22006KT 22/16 A3011 RMK A01 T02210158  RH  068%=      5-min Rain = 0
KBY1 121103Z 21006KT 22/16 A3011 RMK A01 T02200159  RH  068%=      5-min Rain = 0
KBY1 121104Z 21008KT 22/16 A3011 RMK A01 T02200158  RH  068%=      5-min Rain = 0
KBY1 121105Z 21007KT 22/16 A3011 RMK A01 T02190158  RH  068%=      5-min Rain = 0
KBY1 121106Z 21007KT 22/16 A3011 RMK A01 T02200158  RH  068%=      5-min Rain = 0
KBY1 121107Z 21007KT 22/16 A3011 RMK A01 T02190158  RH  068%=      5-min Rain = 0
KBY1 121108Z 22006KT 22/16 A3011 RMK A01 T02200159  RH  069%=      5-min Rain = 0
KBY1 121109Z 21007KT 22/16 A3011 RMK A01 T02190159  RH  068%=      5-min Rain = 0
KBY1 121110Z 21004KT 22/16 A3011 RMK A01 T02190160  RH  069%=      5-min Rain = 0
KBY1 121111Z 22006KT 22/16 A3011 RMK A01 T02190160  RH  069%=      5-min Rain = 0
KBY1 121112Z 22006KT 22/16 A3011 RMK A01 T02190159  RH  069%=      5-min Rain = 0
KBY1 121113Z 21006KT 22/16 A3011 RMK A01 T02190160  RH  069%=      5-min Rain = 0
KBY1 121114Z 21008KT 22/16 A3011 RMK A01 T02190159  RH  069%=      5-min Rain = 0
KBY1 121115Z 21007KT 22/16 A3011 RMK A01 T02200160  RH  069%=      5-min Rain = 0
KBY1 121116Z 19006KT 22/16 A3011 RMK A01 T02200161  RH  069%=      5-min Rain = 0
KBY1 121117Z 20006KT 22/16 A3011 RMK A01 T02200161  RH  069%=      5-min Rain = 0
KBY1 121118Z 20007KT 22/16 A3011 RMK A01 T02210161  RH  069%=      5-min Rain = 0
KBY1 121119Z 21008KT 22/16 A3011 RMK A01 T02220162  RH  069%=      5-min Rain = 0
KBY1 121120Z 21008KT 22/16 A3011 RMK A01 T02230163  RH  069%=      5-min Rain = 0
KBY1 121121Z 21008KT 22/16 A3011 RMK A01 T02230163  RH  069%=      5-min Rain = 0
KBY1 121122Z 20006KT 22/16 A3011 RMK A01 T02230164  RH  069%=      5-min Rain = 0
KBY1 121123Z 20005KT 22/17 A3011 RMK A01 T02230165  RH  070%=      5-min Rain = 0
KBY1 121124Z 22008KT 22/16 A3011 RMK A01 T02230164  RH  069%=      5-min Rain = 0
KBY1 121125Z 20006KT 22/16 A3011 RMK A01 T02230163  RH  069%=      5-min Rain = 0
KBY1 121126Z 20006KT 22/16 A3011 RMK A01 T02230162  RH  069%=      5-min Rain = 0
KBY1 121127Z 21005KT 22/16 A3011 RMK A01 T02230162  RH  068%=      5-min Rain = 0
KBY1 121128Z 22006KT 22/16 A3011 RMK A01 T02240162  RH  068%=      5-min Rain = 0
KBY1 121129Z 22006KT 22/16 A3011 RMK A01 T02240162  RH  068%=      5-min Rain = 0
KBY1 121130Z 22004KT 22/16 A3011 RMK A01 T02240161  RH  067%=      5-min Rain = 0
KBY1 121131Z 22003KT 22/16 A3011 RMK A01 T02240160  RH  067%=      5-min Rain = 0
KBY1 121132Z 22003KT 23/16 A3011 RMK A01 T02250160  RH  067%=      5-min Rain = 0
KBY1 121133Z 19003KT 23/16 A3011 RMK A01 T02250160  RH  067%=      5-min Rain = 0
KBY1 121134Z 23003KT 23/16 A3011 RMK A01 T02250158  RH  066%=      5-min Rain = 0
KBY1 121135Z 22003KT 23/16 A3011 RMK A01 T02260161  RH  067%=      5-min Rain = 0
KBY1 121136Z 22007KT 23/16 A3011 RMK A01 T02260159  RH  066%=      5-min Rain = 0
KBY1 121137Z 22004KT 23/16 A3011 RMK A01 T02270157  RH  065%=      5-min Rain = 0
KBY1 121138Z 23004KT 23/16 A3011 RMK A01 T02270159  RH  065%=      5-min Rain = 0
KBY1 121139Z 20003KT 23/16 A3011 RMK A01 T02270159  RH  065%=      5-min Rain = 0
KBY1 121140Z 20004KT 23/16 A3011 RMK A01 T02270157  RH  065%=      5-min Rain = 0
KBY1 121141Z 18004KT 23/16 A3011 RMK A01 T02280156  RH  064%=      5-min Rain = 0
KBY1 121142Z 24006KT 23/16 A3011 RMK A01 T02280157  RH  064%=      5-min Rain = 0
KBY1 121143Z 20006KT 23/16 A3011 RMK A01 T02290157  RH  064%=      5-min Rain = 0
KBY1 121144Z 21007KT 23/16 A3011 RMK A01 T02300158  RH  064%=      5-min Rain = 0
KBY1 121145Z 21006KT 23/16 A3011 RMK A01 T02300159  RH  064%=      5-min Rain = 0
KBY1 121146Z 22005KT 23/16 A3011 RMK A01 T02310160  RH  064%=      5-min Rain = 0
KBY1 121147Z 22007KT 23/16 A3011 RMK A01 T02310160  RH  064%=      5-min Rain = 0
KBY1 121148Z 24007KT 23/16 A3011 RMK A01 T02310160  RH  064%=      5-min Rain = 0
KBY1 121149Z 23007KT 23/16 A3011 RMK A01 T02310160  RH  064%=      5-min Rain = 0
KBY1 121150Z 23006KT 23/16 A3012 RMK A01 T02310161  RH  065%=      5-min Rain = 0
KBY1 121151Z 24009G15KT 23/16 A3012 RMK A01 T02310162  RH  065%=      5-min Rain = 0
KBY1 121152Z 24009G16KT 23/16 A3011 RMK A01 T02310163  RH  065%=      5-min Rain = 0
KBY1 121153Z 24007KT 23/16 A3012 RMK A01 T02310164  RH  066%=      5-min Rain = 0
KBY1 121154Z 24008G13KT 23/16 A3012 RMK A01 T02310164  RH  066%=      5-min Rain = 0
KBY1 121155Z 23008G13KT 23/16 A3012 RMK A01 T02300164  RH  066%=      5-min Rain = 0
KBY1 121156Z 24009G15KT 23/16 A3012 RMK A01 T02300163  RH  066%=      5-min Rain = 0
KBY1 121157Z 26006KT 23/16 A3012 RMK A01 T02300164  RH  066%=      5-min Rain = 0
KBY1 121158Z 27005KT 23/16 A3012 RMK A01 T02300163  RH  066%=      5-min Rain = 0
KBY1 121159Z 32003KT 23/16 A3012 RMK A01 T02300164  RH  066%=      5-min Rain = 0
KBY1 121200Z 34003KT 23/17 A3012 RMK A01 T02290165  RH  067%=      5-min Rain = 0
KBY1 121201Z 35002KT 23/17 A3012 RMK A01 T02280165  RH  068%=      5-min Rain = 0
KBY1 121202Z 34003KT 23/17 A3013 RMK A01 T02260166  RH  069%=      5-min Rain = 0
KBY1 121203Z 34003KT 23/17 A3013 RMK A01 T02260166  RH  069%=      5-min Rain = 0
KBY1 121204Z 34004KT 23/17 A3012 RMK A01 T02250167  RH  070%=      5-min Rain = 0
KBY1 121205Z 34006KT 22/17 A3012 RMK A01 T02230166  RH  070%=      5-min Rain = 0
KBY1 121206Z 33006KT 22/17 A3012 RMK A01 T02230168  RH  071%=      5-min Rain = 0
KBY1 121207Z 32005KT 22/17 A3012 RMK A01 T02220167  RH  071%=      5-min Rain = 0
KBY1 121208Z 33005KT 22/17 A3012 RMK A01 T02220166  RH  071%=      5-min Rain = 0
KBY1 121209Z 33005KT 22/17 A3013 RMK A01 T02220169  RH  072%=      5-min Rain = 0
KBY1 121210Z 34006KT 22/17 A3012 RMK A01 T02220169  RH  072%=      5-min Rain = 0
KBY1 121211Z 33005KT 22/17 A3013 RMK A01 T02210169  RH  072%=      5-min Rain = 0
KBY1 121212Z 31007KT 22/17 A3013 RMK A01 T02210169  RH  072%=      5-min Rain = 0
KBY1 121213Z 32007KT 22/17 A3012 RMK A01 T02210166  RH  071%=      5-min Rain = 0
KBY1 121214Z 31007KT 22/17 A3012 RMK A01 T02210165  RH  071%=      5-min Rain = 0
KBY1 121215Z 31009KT 22/17 A3012 RMK A01 T02220165  RH  070%=      5-min Rain = 0
KBY1 121216Z 31008KT 22/17 A3012 RMK A01 T02220165  RH  070%=      5-min Rain = 0
KBY1 121217Z 29009KT 22/17 A3012 RMK A01 T02230165  RH  070%=      5-min Rain = 0
KBY1 121218Z 29007KT 22/16 A3012 RMK A01 T02230161  RH  068%=      5-min Rain = 0
KBY1 121219Z 29007KT 23/16 A3012 RMK A01 T02250161  RH  067%=      5-min Rain = 0
KBY1 121220Z 27009KT 23/16 A3012 RMK A01 T02260162  RH  067%=      5-min Rain = 0
KBY1 121221Z 27007KT 23/16 A3012 RMK A01 T02260162  RH  067%=      5-min Rain = 0
KBY1 121222Z 28007KT 23/16 A3012 RMK A01 T02260161  RH  067%=      5-min Rain = 0
KBY1 121223Z 28006KT 23/16 A3012 RMK A01 T02270161  RH  066%=      5-min Rain = 0
KBY1 121224Z 27009KT 23/16 A3012 RMK A01 T02270159  RH  065%=      5-min Rain = 0
KBY1 121225Z 25011KT 23/16 A3012 RMK A01 T02280160  RH  065%=      5-min Rain = 0
KBY1 121226Z 25007KT 23/16 A3012 RMK A01 T02280160  RH  065%=      5-min Rain = 0
KBY1 121227Z 25006KT 23/16 A3012 RMK A01 T02280162  RH  066%=      5-min Rain = 0
KBY1 121228Z 25010KT 23/16 A3012 RMK A01 T02280163  RH  067%=      5-min Rain = 0
KBY1 121229Z 26008KT 23/16 A3012 RMK A01 T02270162  RH  067%=      5-min Rain = 0
KBY1 121230Z 25009KT 23/16 A3012 RMK A01 T02260162  RH  067%=      5-min Rain = 0
KBY1 121231Z 25008KT 23/16 A3012 RMK A01 T02260162  RH  067%=      5-min Rain = 0
KBY1 121232Z 25006KT 23/16 A3012 RMK A01 T02260163  RH  067%=      5-min Rain = 0
KBY1 121233Z 24008KT 23/16 A3012 RMK A01 T02260163  RH  067%=      5-min Rain = 0
KBY1 121234Z 24008KT 23/16 A3012 RMK A01 T02260162  RH  067%=      5-min Rain = 0
KBY1 121235Z 24008KT 23/16 A3012 RMK A01 T02260162  RH  067%=      5-min Rain = 0
KBY1 121236Z 23008KT 23/16 A3012 RMK A01 T02270162  RH  067%=      5-min Rain = 0
KBY1 121237Z 24007KT 23/16 A3012 RMK A01 T02270162  RH  067%=      5-min Rain = 0
KBY1 121238Z 23006KT 23/16 A3012 RMK A01 T02270162  RH  067%=      5-min Rain = 0
KBY1 121239Z 23004KT 23/16 A3012 RMK A01 T02270164  RH  068%=      5-min Rain = 0
KBY1 121240Z 22003KT 23/16 A3012 RMK A01 T02270164  RH  068%=      5-min Rain = 0
KBY1 121241Z 21003KT 23/17 A3012 RMK A01 T02270166  RH  068%=      5-min Rain = 0
KBY1 121242Z 19003KT 23/16 A3012 RMK A01 T02260164  RH  068%=      5-min Rain = 0
KBY1 121243Z 20003KT 23/17 A3012 RMK A01 T02260165  RH  068%=      5-min Rain = 0
KBY1 121244Z 19003KT 23/17 A3012 RMK A01 T02260165  RH  068%=      5-min Rain = 0
KBY1 121245Z 20003KT 23/16 A3012 RMK A01 T02270164  RH  068%=      5-min Rain = 0
KBY1 121246Z 23003KT 23/16 A3012 RMK A01 T02260163  RH  067%=      5-min Rain = 0
KBY1 121247Z 20006KT 23/17 A3012 RMK A01 T02270165  RH  068%=      5-min Rain = 0
KBY1 121248Z 22009KT 23/17 A3012 RMK A01 T02270167  RH  069%=      5-min Rain = 0
KBY1 121249Z 21008KT 23/17 A3012 RMK A01 T02280166  RH  068%=      5-min Rain = 0
KBY1 121250Z 21006KT 23/17 A3012 RMK A01 T02280166  RH  068%=      5-min Rain = 0
KBY1 121251Z 21008KT 23/17 A3012 RMK A01 T02280167  RH  068%=      5-min Rain = 0
KBY1 121252Z 21010KT 23/17 A3012 RMK A01 T02280166  RH  068%=      5-min Rain = 0
KBY1 121253Z 20011KT 23/17 A3012 RMK A01 T02280166  RH  068%=      5-min Rain = 0
KBY1 121254Z 20008KT 23/17 A3012 RMK A01 T02290165  RH  067%=      5-min Rain = 0
KBY1 121255Z 19008KT 23/17 A3012 RMK A01 T02290166  RH  068%=      5-min Rain = 0
KBY1 121256Z 19010KT 23/17 A3012 RMK A01 T02280166  RH  068%=      5-min Rain = 0
KBY1 121257Z 18009KT 23/17 A3012 RMK A01 T02290166  RH  068%=      5-min Rain = 0
KBY1 121258Z 18011KT 23/17 A3012 RMK A01 T02290165  RH  067%=      5-min Rain = 0
KBY1 121259Z 19009KT 23/17 A3012 RMK A01 T02300165  RH  067%=      5-min Rain = 0
KBY1 121300Z 18010KT 23/16 A3012 RMK A01 T02300164  RH  066%=      5-min Rain = 0
KBY1 121301Z 19008KT 23/17 A3012 RMK A01 T02300165  RH  066%=      5-min Rain = 0
KBY1 121302Z 19006KT 23/16 A3012 RMK A01 T02310164  RH  066%=      5-min Rain = 0
KBY1 121303Z 19007KT 23/17 A3012 RMK A01 T02310167  RH  067%=      5-min Rain = 0
KBY1 121304Z 20009KT 23/17 A3012 RMK A01 T02310165  RH  066%=      5-min Rain = 0
KBY1 121305Z 21007KT 23/17 A3013 RMK A01 T02320165  RH  066%=      5-min Rain = 0
KBY1 121306Z 22005KT 23/17 A3013 RMK A01 T02320167  RH  067%=      5-min Rain = 0
KBY1 121307Z 24003KT 23/17 A3013 RMK A01 T02320169  RH  068%=      5-min Rain = 0
KBY1 121308Z 23003KT 23/17 A3013 RMK A01 T02330169  RH  067%=      5-min Rain = 0
KBY1 121309Z 21003KT 23/17 A3013 RMK A01 T02330169  RH  067%=      5-min Rain = 0
KBY1 121310Z 21003KT 23/17 A3013 RMK A01 T02330169  RH  067%=      5-min Rain = 0
KBY1 121311Z 21004KT 23/17 A3013 RMK A01 T02330167  RH  066%=      5-min Rain = 0
KBY1 121312Z 24003KT 23/17 A3013 RMK A01 T02340168  RH  067%=      5-min Rain = 0
KBY1 121313Z 24002KT 23/17 A3013 RMK A01 T02340166  RH  066%=      5-min Rain = 0
KBY1 121314Z 23001KT 23/17 A3013 RMK A01 T02340169  RH  067%=      5-min Rain = 0
KBY1 121315Z 23005KT 24/17 A3013 RMK A01 T02350168  RH  066%=      5-min Rain = 0
KBY1 121316Z 23010KT 24/16 A3013 RMK A01 T02350163  RH  064%=      5-min Rain = 0
KBY1 121317Z 22008KT 24/16 A3013 RMK A01 T02360161  RH  063%=      5-min Rain = 0
KBY1 121318Z 23007KT 24/16 A3013 RMK A01 T02350161  RH  063%=      5-min Rain = 0
KBY1 121319Z 21004KT 24/16 A3013 RMK A01 T02360164  RH  064%=      5-min Rain = 0
KBY1 121320Z 22006KT 24/16 A3013 RMK A01 T02360163  RH  064%=      5-min Rain = 0
KBY1 121321Z 22005KT 24/16 A3013 RMK A01 T02350163  RH  064%=      5-min Rain = 0
KBY1 121322Z 23004KT 24/16 A3013 RMK A01 T02350162  RH  063%=      5-min Rain = 0
KBY1 121323Z 23003KT 24/16 A3013 RMK A01 T02350162  RH  064%=      5-min Rain = 0
KBY1 121324Z 21006KT 24/16 A3013 RMK A01 T02350161  RH  063%=      5-min Rain = 0
KBY1 121325Z 25010KT 23/16 A3013 RMK A01 T02340161  RH  063%=      5-min Rain = 0
KBY1 121326Z 22010G16KT 23/16 A3013 RMK A01 T02340161  RH  064%=      5-min Rain = 0
KBY1 121327Z 22011KT 23/16 A3013 RMK A01 T02320160  RH  064%=      5-min Rain = 0
KBY1 121328Z 22010KT 23/16 A3013 RMK A01 T02310160  RH  064%=      5-min Rain = 0
KBY1 121329Z 22011KT 23/16 A3013 RMK A01 T02300160  RH  065%=      5-min Rain = 0
KBY1 121330Z 22011G16KT 23/16 A3013 RMK A01 T02290159  RH  065%=      5-min Rain = 0
KBY1 121331Z 21008KT 23/16 A3013 RMK A01 T02280160  RH  065%=      5-min Rain = 0
KBY1 121332Z 21006KT 23/16 A3013 RMK A01 T02280159  RH  065%=      5-min Rain = 0
KBY1 121333Z 22005KT 23/16 A3013 RMK A01 T02270160  RH  066%=      5-min Rain = 0
KBY1 121334Z 23006KT 23/16 A3013 RMK A01 T02270159  RH  065%=      5-min Rain = 0
KBY1 121335Z 25006KT 23/16 A3013 RMK A01 T02270158  RH  065%=      5-min Rain = 0
KBY1 121336Z 28005KT 23/16 A3013 RMK A01 T02270158  RH  065%=      5-min Rain = 0
KBY1 121337Z 26006KT 23/16 A3013 RMK A01 T02270160  RH  066%=      5-min Rain = 0
KBY1 121338Z 27006KT 23/16 A3013 RMK A01 T02270160  RH  066%=      5-min Rain = 0
KBY1 121339Z 28006KT 23/16 A3013 RMK A01 T02270157  RH  065%=      5-min Rain = 0
KBY1 121340Z 27005KT 23/16 A3013 RMK A01 T02270158  RH  065%=      5-min Rain = 0
KBY1 121341Z 28005KT 23/16 A3013 RMK A01 T02270159  RH  066%=      5-min Rain = 0
KBY1 121342Z 29003KT 23/16 A3013 RMK A01 T02260159  RH  066%=      5-min Rain = 0
KBY1 121343Z 28004KT 23/16 A3013 RMK A01 T02260160  RH  066%=      5-min Rain = 0
KBY1 121344Z 28006KT 23/16 A3013 RMK A01 T02260159  RH  066%=      5-min Rain = 0
KBY1 121345Z 23007KT 23/16 A3013 RMK A01 T02260159  RH  066%=      5-min Rain = 0
KBY1 121346Z 23005KT 23/16 A3013 RMK A01 T02260159  RH  066%=      5-min Rain = 0
KBY1 121347Z 25004KT 23/16 A3013 RMK A01 T02260160  RH  066%=      5-min Rain = 0
KBY1 121348Z 23006KT 23/16 A3013 RMK A01 T02250159  RH  066%=      5-min Rain = 0
KBY1 121349Z 25006KT 23/16 A3013 RMK A01 T02250160  RH  067%=      5-min Rain = 0
KBY1 121350Z 23007KT 22/16 A3013 RMK A01 T02240161  RH  068%=      5-min Rain = 0
KBY1 121351Z 23007KT 22/16 A3013 RMK A01 T02240158  RH  066%=      5-min Rain = 0
KBY1 121352Z 23005KT 22/16 A3013 RMK A01 T02240160  RH  067%=      5-min Rain = 0
KBY1 121353Z 22006KT 22/16 A3013 RMK A01 T02230160  RH  067%=      5-min Rain = 0
KBY1 121354Z 22006KT 22/16 A3013 RMK A01 T02230161  RH  068%=      5-min Rain = 0
KBY1 121355Z 21006KT 22/16 A3013 RMK A01 T02220161  RH  068%=      5-min Rain = 0
KBY1 121356Z 22004KT 22/16 A3013 RMK A01 T02220162  RH  069%=      5-min Rain = 0
KBY1 121357Z 23003KT 22/16 A3013 RMK A01 T02210163  RH  070%=      5-min Rain = 0
KBY1 121358Z 23005KT 22/16 A3013 RMK A01 T02200163  RH  070%=      5-min Rain = 0
KBY1 121359Z 23005KT 22/16 A3013 RMK A01 T02200161  RH  069%=      5-min Rain = 0
KBY1 121400Z 23004KT 22/16 A3012 RMK A01 T02200161  RH  069%=      5-min Rain = 0
KBY1 121401Z 25003KT 22/16 A3012 RMK A01 T02210163  RH  070%=      5-min Rain = 0
KBY1 121402Z 25003KT 22/16 A3012 RMK A01 T02200163  RH  070%=      5-min Rain = 0
KBY1 121403Z 25003KT 22/16 A3012 RMK A01 T02200163  RH  070%=      5-min Rain = 0
KBY1 121404Z 25002KT 22/16 A3012 RMK A01 T02210160  RH  068%=      5-min Rain = 0
KBY1 121405Z 25002KT 22/16 A3012 RMK A01 T02210164  RH  070%=      5-min Rain = 0
KBY1 121406Z 25003KT 22/17 A3012 RMK A01 T02210165  RH  070%=      5-min Rain = 0
KBY1 121407Z 23003KT 22/16 A3012 RMK A01 T02210161  RH  068%=      5-min Rain = 0
KBY1 121408Z 22003KT 22/16 A3012 RMK A01 T02220163  RH  069%=      5-min Rain = 0
KBY1 121409Z 21003KT 22/16 A3012 RMK A01 T02220164  RH  070%=      5-min Rain = 0
KBY1 121410Z 21003KT 22/16 A3012 RMK A01 T02220163  RH  069%=      5-min Rain = 0
KBY1 121411Z 18003KT 22/16 A3012 RMK A01 T02220162  RH  069%=      5-min Rain = 0
KBY1 121412Z 17003KT 22/17 A3012 RMK A01 T02210168  RH  072%=      5-min Rain = 0
KBY1 121413Z 18004KT 22/17 A3012 RMK A01 T02200169  RH  073%=      5-min Rain = 0
KBY1 121414Z 21004KT 22/17 A3012 RMK A01 T02190168  RH  073%=      5-min Rain = 0
KBY1 121415Z 21003KT 22/17 A3012 RMK A01 T02190165  RH  072%=      5-min Rain = 0
KBY1 121416Z 24001KT 22/17 A3013 RMK A01 T02190166  RH  072%=      5-min Rain = 0
KBY1 121417Z 25002KT 22/17 A3013 RMK A01 T02190167  RH  072%=      5-min Rain = 0
KBY1 121418Z 25002KT 22/17 A3013 RMK A01 T02190166  RH  072%=      5-min Rain = 0
KBY1 121419Z 24003KT 22/17 A3013 RMK A01 T02190165  RH  072%=      5-min Rain = 0
KBY1 121420Z 26002KT 22/17 A3013 RMK A01 T02190166  RH  072%=      5-min Rain = 0
KBY1 121421Z 25001KT 22/17 A3013 RMK A01 T02190165  RH  071%=      5-min Rain = 0
KBY1 121422Z 26000KT 22/16 A3013 RMK A01 T02190164  RH  071%=      5-min Rain = 0
KBY1 121423Z 00000KT 22/17 A3013 RMK A01 T02190170  RH  073%=      5-min Rain = 0
KBY1 121424Z 00000KT 22/17 A3013 RMK A01 T02200170  RH  073%=      5-min Rain = 0
KBY1 121425Z 00000KT 22/17 A3013 RMK A01 T02190172  RH  074%=      5-min Rain = 0
KBY1 121426Z 00000KT 22/17 A3013 RMK A01 T02200169  RH  073%=      5-min Rain = 0
KBY1 121427Z 18001KT 22/16 A3013 RMK A01 T02190164  RH  071%=      5-min Rain = 0
KBY1 121428Z 11001KT 22/17 A3013 RMK A01 T02190169  RH  073%=      5-min Rain = 0
KBY1 121429Z 12002KT 22/17 A3013 RMK A01 T02190174  RH  076%=      5-min Rain = 0
KBY1 121430Z 09002KT 22/17 A3013 RMK A01 T02170171  RH  075%=      5-min Rain = 0
KBY1 121431Z 13002KT 22/17 A3013 RMK A01 T02160167  RH  074%=      5-min Rain = 0
KBY1 121432Z 09004KT 22/17 A3013 RMK A01 T02160166  RH  073%=      5-min Rain = 0
KBY1 121433Z 10003KT 22/16 A3013 RMK A01 T02160164  RH  072%=      5-min Rain = 0
KBY1 121434Z 14001KT 22/16 A3013 RMK A01 T02160158  RH  069%=      5-min Rain = 0
KBY1 121435Z 15005KT 22/16 A3013 RMK A01 T02170160  RH  070%=      5-min Rain = 0
KBY1 121436Z 17005KT 22/16 A3013 RMK A01 T02180160  RH  069%=      5-min Rain = 0
KBY1 121437Z 17002KT 22/16 A3014 RMK A01 T02170160  RH  070%=      5-min Rain = 0
KBY1 121438Z 17000KT 22/16 A3014 RMK A01 T02170157  RH  069%=      5-min Rain = 0
KBY1 121439Z 18000KT 22/16 A3014 RMK A01 T02170157  RH  069%=      5-min Rain = 0
KBY1 121440Z 05000KT 22/16 A3014 RMK A01 T02170156  RH  068%=      5-min Rain = 0
KBY1 121441Z 04001KT 22/16 A3014 RMK A01 T02180155  RH  067%=      5-min Rain = 0
KBY1 121442Z 07002KT 22/16 A3014 RMK A01 T02180160  RH  069%=      5-min Rain = 0
KBY1 121443Z 09001KT 22/16 A3014 RMK A01 T02190158  RH  068%=      5-min Rain = 0
KBY1 121444Z 02001KT 22/16 A3014 RMK A01 T02190159  RH  069%=      5-min Rain = 0
KBY1 121445Z 01002KT 22/16 A3014 RMK A01 T02190164  RH  071%=      5-min Rain = 0
KBY1 121446Z 02003KT 22/17 A3014 RMK A01 T02180166  RH  072%=      5-min Rain = 0
KBY1 121447Z 04002KT 22/17 A3014 RMK A01 T02180166  RH  072%=      5-min Rain = 0
KBY1 121448Z 04003KT 22/17 A3014 RMK A01 T02180167  RH  073%=      5-min Rain = 0
KBY1 121449Z 04003KT 22/16 A3014 RMK A01 T02180163  RH  071%=      5-min Rain = 0
KBY1 121450Z 06000KT 22/16 A3014 RMK A01 T02180162  RH  071%=      5-min Rain = 0
KBY1 121451Z 31000KT 22/17 A3014 RMK A01 T02180165  RH  072%=      5-min Rain = 0
KBY1 121452Z 00002KT 22/16 A3014 RMK A01 T02180162  RH  070%=      5-min Rain = 0
KBY1 121453Z 00003KT 22/16 A3014 RMK A01 T02190164  RH  071%=      5-min Rain = 0
KBY1 121454Z 02004KT 22/17 A3013 RMK A01 T02180167  RH  073%=      5-min Rain = 0
KBY1 121455Z 03002KT 22/17 A3014 RMK A01 T02180169  RH  073%=      5-min Rain = 0
KBY1 121456Z 04003KT 22/16 A3014 RMK A01 T02180164  RH  071%=      5-min Rain = 0
KBY1 121457Z 03004KT 22/16 A3013 RMK A01 T02190160  RH  069%=      5-min Rain = 0
KBY1 121458Z 09003KT 22/16 A3014 RMK A01 T02200164  RH  071%=      5-min Rain = 0
KBY1 121459Z 08004KT 22/17 A3014 RMK A01 T02200166  RH  071%=      5-min Rain = 0
KBY1 121500Z 07005KT 22/17 A3014 RMK A01 T02200167  RH  072%=      5-min Rain = 0
KBY1 121501Z 07003KT 22/17 A3014 RMK A01 T02200165  RH  071%=      5-min Rain = 0
KBY1 121502Z 07004KT 22/16 A3014 RMK A01 T02200163  RH  070%=      5-min Rain = 0
KBY1 121503Z 06004KT 22/17 A3014 RMK A01 T02200167  RH  072%=      5-min Rain = 0
KBY1 121504Z 06003KT 22/16 A3014 RMK A01 T02210163  RH  070%=      5-min Rain = 0
KBY1 121505Z 04003KT 22/16 A3014 RMK A01 T02220163  RH  069%=      5-min Rain = 0
KBY1 121506Z 03003KT 22/16 A3014 RMK A01 T02220162  RH  069%=      5-min Rain = 0
KBY1 121507Z 08003KT 22/17 A3014 RMK A01 T02230165  RH  070%=      5-min Rain = 0
KBY1 121508Z 08004KT 22/17 A3014 RMK A01 T02230165  RH  070%=      5-min Rain = 0
KBY1 121509Z 09005KT 22/17 A3014 RMK A01 T02230165  RH  070%=      5-min Rain = 0
KBY1 121510Z 09002KT 22/16 A3014 RMK A01 T02230162  RH  068%=      5-min Rain = 0
KBY1 121511Z 03002KT 22/16 A3014 RMK A01 T02230162  RH  068%=      5-min Rain = 0
KBY1 121512Z 03002KT 23/16 A3014 RMK A01 T02250164  RH  069%=      5-min Rain = 0
KBY1 121513Z 01002KT 23/16 A3014 RMK A01 T02270162  RH  067%=      5-min Rain = 0
KBY1 121514Z 01002KT 23/16 A3014 RMK A01 T02280164  RH  067%=      5-min Rain = 0
KBY1 121515Z 34001KT 23/17 A3014 RMK A01 T02300166  RH  067%=      5-min Rain = 0
KBY1 121516Z 03001KT 23/17 A3014 RMK A01 T02310166  RH  067%=      5-min Rain = 0
KBY1 121517Z 07001KT 23/17 A3014 RMK A01 T02320167  RH  067%=      5-min Rain = 0
KBY1 121518Z 16000KT 23/17 A3014 RMK A01 T02330169  RH  067%=      5-min Rain = 0
KBY1 121519Z 21002KT 23/17 A3014 RMK A01 T02340168  RH  066%=      5-min Rain = 0
KBY1 121520Z 20001KT 24/17 A3014 RMK A01 T02350171  RH  067%=      5-min Rain = 0
KBY1 121521Z 20000KT 24/17 A3014 RMK A01 T02360173  RH  068%=      5-min Rain = 0
KBY1 121522Z 25002KT 24/17 A3014 RMK A01 T02370174  RH  068%=      5-min Rain = 0
KBY1 121523Z 20005KT 24/18 A3014 RMK A01 T02370175  RH  068%=      5-min Rain = 0
KBY1 121524Z 17004KT 24/17 A3014 RMK A01 T02380173  RH  067%=      5-min Rain = 0
KBY1 121525Z 20004KT 24/18 A3014 RMK A01 T02380177  RH  068%=      5-min Rain = 0
KBY1 121526Z 20006KT 24/18 A3014 RMK A01 T02410178  RH  068%=      5-min Rain = 0
KBY1 121527Z 21005KT 25/18 A3014 RMK A01 T02450177  RH  066%=      5-min Rain = 0
KBY1 121528Z 21008KT 25/18 A3014 RMK A01 T02480175  RH  064%=      5-min Rain = 0
KBY1 121529Z 21011KT 25/17 A3014 RMK A01 T02520172  RH  061%=      5-min Rain = 0
KBY1 121530Z 21011KT 26/17 A3014 RMK A01 T02550172  RH  060%=      5-min Rain = 0
KBY1 121531Z 21010KT 26/17 A3014 RMK A01 T02580170  RH  058%=      5-min Rain = 0
KBY1 121532Z 22011KT 26/17 A3013 RMK A01 T02590169  RH  058%=      5-min Rain = 0
KBY1 121533Z 21012KT 26/17 A3013 RMK A01 T02590167  RH  057%=      5-min Rain = 0
KBY1 121534Z 21013KT 26/17 A3013 RMK A01 T02600166  RH  056%=      5-min Rain = 0
KBY1 121535Z 20010KT 26/17 A3013 RMK A01 T02600166  RH  056%=      5-min Rain = 0
KBY1 121536Z 21012KT 26/17 A3013 RMK A01 T02640171  RH  057%=      5-min Rain = 0
KBY1 121537Z 21011KT 27/17 A3013 RMK A01 T02660166  RH  054%=      5-min Rain = 0
KBY1 121538Z 22011KT 27/17 A3013 RMK A01 T02680168  RH  054%=      5-min Rain = 0
KBY1 121539Z 21012KT 27/17 A3013 RMK A01 T02680170  RH  055%=      5-min Rain = 0
KBY1 121540Z 21013KT 27/17 A3013 RMK A01 T02710168  RH  053%=      5-min Rain = 0
KBY1 121541Z 22012KT 27/17 A3013 RMK A01 T02710167  RH  053%=      5-min Rain = 0
KBY1 121542Z 22010KT 27/17 A3013 RMK A01 T02710168  RH  053%=      5-min Rain = 0
KBY1 121543Z 23009KT 27/17 A3013 RMK A01 T02730169  RH  053%=      5-min Rain = 0
KBY1 121544Z 22013G18KT 28/16 A3013 RMK A01 T02750164  RH  051%=      5-min Rain = 0
KBY1 121545Z 21013KT 28/17 A3013 RMK A01 T02770168  RH  051%=      5-min Rain = 0
KBY1 121546Z 21012KT 28/16 A3013 RMK A01 T02780164  RH  050%=      5-min Rain = 0
KBY1 121547Z 22012KT 28/16 A3013 RMK A01 T02780164  RH  050%=      5-min Rain = 0
KBY1 121548Z 21012KT 28/16 A3013 RMK A01 T02780163  RH  049%=      5-min Rain = 0
KBY1 121549Z 23010KT 28/16 A3013 RMK A01 T02790163  RH  049%=      5-min Rain = 0
KBY1 121550Z 21009KT 28/17 A3013 RMK A01 T02800167  RH  050%=      5-min Rain = 0
KBY1 121551Z 22007KT 28/17 A3013 RMK A01 T02830172  RH  051%=      5-min Rain = 0
KBY1 121552Z 23008KT 29/17 A3013 RMK A01 T02870171  RH  050%=      5-min Rain = 0
KBY1 121553Z 23010KT 29/17 A3013 RMK A01 T02890168  RH  048%=      5-min Rain = 0
KBY1 121554Z 23011KT 29/17 A3013 RMK A01 T02880166  RH  048%=      5-min Rain = 0
KBY1 121555Z 23011KT 29/17 A3013 RMK A01 T02870167  RH  048%=      5-min Rain = 0
KBY1 121556Z 23010KT 29/17 A3013 RMK A01 T02860169  RH  049%=      5-min Rain = 0
KBY1 121557Z 22013KT 29/17 A3013 RMK A01 T02890170  RH  049%=      5-min Rain = 0
KBY1 121558Z 22013KT 29/17 A3013 RMK A01 T02900170  RH  048%=      5-min Rain = 0
KBY1 121559Z 22010KT 29/17 A3013 RMK A01 T02880170  RH  049%=      5-min Rain = 0
KBY1 121600Z 23011KT 29/17 A3013 RMK A01 T02880170  RH  049%=      5-min Rain = 0
KBY1 121601Z 23012KT 29/17 A3013 RMK A01 T02880170  RH  049%=      5-min Rain = 0
KBY1 121602Z 23013KT 29/17 A3013 RMK A01 T02910170  RH  048%=      5-min Rain = 0
KBY1 121603Z 22010KT 29/17 A3013 RMK A01 T02910169  RH  048%=      5-min Rain = 0
KBY1 121604Z 22012G17KT 29/17 A3013 RMK A01 T02900172  RH  049%=      5-min Rain = 0
KBY1 121605Z 22013KT 29/17 A3012 RMK A01 T02920165  RH  046%=      5-min Rain = 0
KBY1 121606Z 22012KT 29/16 A3013 RMK A01 T02900163  RH  046%=      5-min Rain = 0
KBY1 121607Z 22012KT 29/17 A3013 RMK A01 T02900168  RH  048%=      5-min Rain = 0
KBY1 121608Z 22011KT 29/17 A3013 RMK A01 T02910167  RH  047%=      5-min Rain = 0
KBY1 121609Z 21014KT 29/17 A3012 RMK A01 T02920171  RH  048%=      5-min Rain = 0
KBY1 121610Z 22013KT 29/17 A3013 RMK A01 T02920169  RH  047%=      5-min Rain = 0
KBY1 121611Z 22009G15KT 29/17 A3013 RMK A01 T02910172  RH  048%=      5-min Rain = 0
KBY1 121612Z 21012KT 29/17 A3013 RMK A01 T02920168  RH  047%=      5-min Rain = 0
KBY1 121613Z 21013KT 29/17 A3013 RMK A01 T02900168  RH  048%=      5-min Rain = 0
KBY1 121614Z 21012KT 29/17 A3013 RMK A01 T02880167  RH  048%=      5-min Rain = 0
KBY1 121615Z 21011KT 29/17 A3013 RMK A01 T02870167  RH  048%=      5-min Rain = 0
KBY1 121616Z 21012KT 29/17 A3013 RMK A01 T02850166  RH  049%=      5-min Rain = 0
KBY1 121617Z 20013KT 28/17 A3013 RMK A01 T02830165  RH  049%=      5-min Rain = 0
KBY1 121618Z 21010KT 28/17 A3013 RMK A01 T02810166  RH  050%=      5-min Rain = 0
KBY1 121619Z 22010KT 28/17 A3013 RMK A01 T02800166  RH  050%=      5-min Rain = 0
KBY1 121620Z 22010KT 28/17 A3013 RMK A01 T02800167  RH  050%=      5-min Rain = 0
KBY1 121621Z 22011KT 28/16 A3013 RMK A01 T02810163  RH  049%=      5-min Rain = 0
KBY1 121622Z 23011KT 28/16 A3013 RMK A01 T02820162  RH  048%=      5-min Rain = 0
KBY1 121623Z 21009KT 28/17 A3013 RMK A01 T02830166  RH  049%=      5-min Rain = 0
KBY1 121624Z 22009KT 29/17 A3013 RMK A01 T02860166  RH  048%=      5-min Rain = 0
KBY1 121625Z 22009KT 29/16 A3013 RMK A01 T02870164  RH  047%=      5-min Rain = 0
KBY1 121626Z 22012KT 29/17 A3013 RMK A01 T02890165  RH  047%=      5-min Rain = 0
KBY1 121627Z 22010KT 29/16 A3013 RMK A01 T02890163  RH  046%=      5-min Rain = 0
KBY1 121628Z 23011KT 29/16 A3013 RMK A01 T02880161  RH  046%=      5-min Rain = 0
KBY1 121629Z 22010KT 29/16 A3013 RMK A01 T02850160  RH  047%=      5-min Rain = 0
KBY1 121630Z 20008KT 28/17 A3013 RMK A01 T02830165  RH  049%=      5-min Rain = 0
KBY1 121631Z 20009KT 28/17 A3013 RMK A01 T02830165  RH  049%=      5-min Rain = 0
KBY1 121632Z 20008KT 28/17 A3013 RMK A01 T02830166  RH  049%=      5-min Rain = 0
KBY1 121633Z 20009KT 28/17 A3013 RMK A01 T02820165  RH  049%=      5-min Rain = 0
KBY1 121634Z 20011KT 28/16 A3013 RMK A01 T02820164  RH  049%=      5-min Rain = 0
KBY1 121635Z 21009KT 28/16 A3013 RMK A01 T02820162  RH  048%=      5-min Rain = 0
KBY1 121636Z 21009KT 28/16 A3013 RMK A01 T02820164  RH  049%=      5-min Rain = 0
KBY1 121637Z 21011KT 28/16 A3013 RMK A01 T02830163  RH  048%=      5-min Rain = 0
KBY1 121638Z 20012KT 29/16 A3013 RMK A01 T02850162  RH  047%=      5-min Rain = 0
KBY1 121639Z 21010KT 29/16 A3013 RMK A01 T02850161  RH  047%=      5-min Rain = 0
KBY1 121640Z 19009KT 29/16 A3013 RMK A01 T02850164  RH  048%=      5-min Rain = 0
KBY1 121641Z 18009KT 29/16 A3013 RMK A01 T02850164  RH  048%=      5-min Rain = 0
KBY1 121642Z 21008KT 29/17 A3013 RMK A01 T02870167  RH  048%=      5-min Rain = 0
KBY1 121643Z 21008KT 29/17 A3013 RMK A01 T02880166  RH  048%=      5-min Rain = 0
KBY1 121644Z 21007KT 29/17 A3013 RMK A01 T02890170  RH  049%=      5-min Rain = 0
KBY1 121645Z 20008KT 29/17 A3013 RMK A01 T02890169  RH  048%=      5-min Rain = 0
KBY1 121646Z 20011KT 29/17 A3013 RMK A01 T02900168  RH  047%=      5-min Rain = 0
KBY1 121647Z 19011KT 29/17 A3013 RMK A01 T02900167  RH  047%=      5-min Rain = 0
KBY1 121648Z 19011KT 29/17 A3013 RMK A01 T02880166  RH  048%=      5-min Rain = 0
KBY1 121649Z 19010KT 29/17 A3013 RMK A01 T02880168  RH  048%=      5-min Rain = 0
KBY1 121650Z 18011G16KT 29/17 A3013 RMK A01 T02920170  RH  048%=      5-min Rain = 0
KBY1 121651Z 22010KT 29/17 A3013 RMK A01 T02940169  RH  047%=      5-min Rain = 0
KBY1 121652Z 21009KT 30/17 A3013 RMK A01 T02960170  RH  047%=      5-min Rain = 0
KBY1 121653Z 23011KT 30/17 A3013 RMK A01 T02980170  RH  046%=      5-min Rain = 0
KBY1 121654Z 21009KT 30/17 A3013 RMK A01 T03020173  RH  046%=      5-min Rain = 0
KBY1 121655Z 19011KT 31/17 A3013 RMK A01 T03050172  RH  045%=      5-min Rain = 0
KBY1 121656Z 19009KT 30/18 A3013 RMK A01 T03040175  RH  046%=      5-min Rain = 0
KBY1 121657Z 21008KT 31/18 A3013 RMK A01 T03050176  RH  046%=      5-min Rain = 0
KBY1 121658Z 19009KT 30/17 A3013 RMK A01 T03040173  RH  045%=      5-min Rain = 0
KBY1 121659Z 19011G17KT 30/17 A3013 RMK A01 T03020174  RH  046%=      5-min Rain = 0
KBY1 121700Z 19013KT 30/17 A3013 RMK A01 T03030173  RH  046%=      5-min Rain = 0
KBY1 121701Z 21012KT 30/17 A3013 RMK A01 T03040174  RH  046%=      5-min Rain = 0
KBY1 121702Z 21013KT 31/17 A3013 RMK A01 T03050172  RH  045%=      5-min Rain = 0
KBY1 121703Z 22016KT 30/17 A3013 RMK A01 T03030170  RH  045%=      5-min Rain = 0
KBY1 121704Z 21009KT 30/17 A3013 RMK A01 T03000173  RH  046%=      5-min Rain = 0
KBY1 121705Z 20013KT 30/17 A3013 RMK A01 T03010172  RH  046%=      5-min Rain = 0
KBY1 121706Z 21014KT 30/17 A3013 RMK A01 T03020172  RH  046%=      5-min Rain = 0
KBY1 121707Z 19011KT 30/17 A3013 RMK A01 T03020172  RH  046%=      5-min Rain = 0
KBY1 121708Z 20010KT 30/18 A3013 RMK A01 T03030176  RH  047%=      5-min Rain = 0
KBY1 121709Z 21015KT 30/18 A3013 RMK A01 T03040175  RH  046%=      5-min Rain = 0
KBY1 121710Z 21015KT 30/18 A3013 RMK A01 T03020175  RH  046%=      5-min Rain = 0
KBY1 121711Z 22014KT 30/17 A3013 RMK A01 T03000173  RH  046%=      5-min Rain = 0
KBY1 121712Z 21011G16KT 30/17 A3013 RMK A01 T02990173  RH  047%=      5-min Rain = 0
KBY1 121713Z 19012KT 30/17 A3012 RMK A01 T03000172  RH  046%=      5-min Rain = 0
KBY1 121714Z 19013KT 30/17 A3012 RMK A01 T03010173  RH  046%=      5-min Rain = 0
KBY1 121715Z 22014KT 30/17 A3012 RMK A01 T03040174  RH  046%=      5-min Rain = 0
KBY1 121716Z 22010KT 31/17 A3012 RMK A01 T03050172  RH  045%=      5-min Rain = 0
KBY1 121717Z 21011KT 31/17 A3012 RMK A01 T03050174  RH  045%=      5-min Rain = 0
KBY1 121718Z 19013KT 31/18 A3012 RMK A01 T03060175  RH  045%=      5-min Rain = 0
KBY1 121719Z 21014KT 31/18 A3012 RMK A01 T03090175  RH  045%=      5-min Rain = 0
KBY1 121720Z 21010KT 31/17 A3012 RMK A01 T03080170  RH  044%=      5-min Rain = 0
KBY1 121721Z 20012KT 31/17 A3012 RMK A01 T03050172  RH  045%=      5-min Rain = 0
KBY1 121722Z 20013KT 30/17 A3012 RMK A01 T03030171  RH  045%=      5-min Rain = 0
KBY1 121723Z 21010KT 30/17 A3012 RMK A01 T03020172  RH  046%=      5-min Rain = 0
KBY1 121724Z 21008KT 31/18 A3012 RMK A01 T03050176  RH  046%=      5-min Rain = 0
KBY1 121725Z 20010KT 31/18 A3012 RMK A01 T03110176  RH  045%=      5-min Rain = 0
KBY1 121726Z 21009KT 32/18 A3012 RMK A01 T03160178  RH  044%=      5-min Rain = 0
KBY1 121727Z 21010KT 32/18 A3012 RMK A01 T03180176  RH  043%=      5-min Rain = 0
KBY1 121728Z 21011KT 32/18 A3012 RMK A01 T03180175  RH  042%=      5-min Rain = 0
KBY1 121729Z 21014G19KT 32/17 A3012 RMK A01 T03180174  RH  042%=      5-min Rain = 0
KBY1 121730Z 20014KT 32/17 A3012 RMK A01 T03190168  RH  041%=      5-min Rain = 0
KBY1 121731Z 20015KT 32/17 A3012 RMK A01 T03160167  RH  041%=      5-min Rain = 0
KBY1 121732Z 21014KT 31/17 A3012 RMK A01 T03140168  RH  041%=      5-min Rain = 0
KBY1 121733Z 20014KT 31/17 A3012 RMK A01 T03120166  RH  041%=      5-min Rain = 0
KBY1 121734Z 22013G18KT 31/17 A3012 RMK A01 T03120169  RH  042%=      5-min Rain = 0
KBY1 121735Z 19013G18KT 31/17 A3012 RMK A01 T03140172  RH  043%=      5-min Rain = 0
KBY1 121736Z 21015KT 32/17 A3012 RMK A01 T03160173  RH  042%=      5-min Rain = 0
KBY1 121737Z 21013KT 32/17 A3012 RMK A01 T03160170  RH  042%=      5-min Rain = 0
KBY1 121738Z 20013KT 32/17 A3012 RMK A01 T03150171  RH  042%=      5-min Rain = 0
KBY1 121739Z 20013KT 32/18 A3012 RMK A01 T03170175  RH  043%=      5-min Rain = 0
KBY1 121740Z 20011KT 32/17 A3012 RMK A01 T03210171  RH  041%=      5-min Rain = 0
KBY1 121741Z 20012KT 32/18 A3012 RMK A01 T03210176  RH  042%=      5-min Rain = 0
KBY1 121742Z 21013G20KT 32/18 A3012 RMK A01 T03230176  RH  041%=      5-min Rain = 0
KBY1 121743Z 21014KT 32/17 A3012 RMK A01 T03220171  RH  040%=      5-min Rain = 0
KBY1 121744Z 21013KT 32/17 A3012 RMK A01 T03180168  RH  041%=      5-min Rain = 0
KBY1 121745Z 21011KT 31/17 A3012 RMK A01 T03140172  RH  043%=      5-min Rain = 0
KBY1 121746Z 20013KT 31/17 A3012 RMK A01 T03110170  RH  043%=      5-min Rain = 0
KBY1 121747Z 20012KT 31/17 A3012 RMK A01 T03080169  RH  043%=      5-min Rain = 0
KBY1 121748Z 20016KT 31/17 A3012 RMK A01 T03060167  RH  043%=      5-min Rain = 0
KBY1 121749Z 20013KT 30/17 A3012 RMK A01 T03040165  RH  043%=      5-min Rain = 0
KBY1 121750Z 20013KT 30/17 A3012 RMK A01 T03030168  RH  044%=      5-min Rain = 0
KBY1 121751Z 21014KT 30/17 A3012 RMK A01 T03030167  RH  044%=      5-min Rain = 0
KBY1 121752Z 21014KT 30/17 A3012 RMK A01 T03040166  RH  044%=      5-min Rain = 0
KBY1 121753Z 21014KT 30/17 A3012 RMK A01 T03040167  RH  044%=      5-min Rain = 0
KBY1 121754Z 21014KT 30/17 A3012 RMK A01 T03040166  RH  043%=      5-min Rain = 0
KBY1 121755Z 20014KT 30/17 A3012 RMK A01 T03040168  RH  044%=      5-min Rain = 0
KBY1 121756Z 21013KT 30/17 A3012 RMK A01 T03040169  RH  044%=      5-min Rain = 0
KBY1 121757Z 20013KT 30/17 A3012 RMK A01 T03040168  RH  044%=      5-min Rain = 0
KBY1 121758Z 21010G16KT 31/17 A3012 RMK A01 T03050170  RH  044%=      5-min Rain = 0
KBY1 121759Z 21013KT 31/17 A3012 RMK A01 T03070171  RH  044%=      5-min Rain = 0
KBY1 121800Z 19012KT 31/17 A3012 RMK A01 T03080170  RH  044%=      5-min Rain = 0
KBY1 121801Z 19011KT 31/17 A3012 RMK A01 T03070168  RH  043%=      5-min Rain = 0
KBY1 121802Z 18013G19KT 31/17 A3012 RMK A01 T03070170  RH  044%=      5-min Rain = 0
KBY1 121803Z 19015KT 31/17 A3012 RMK A01 T03070167  RH  043%=      5-min Rain = 0
KBY1 121804Z 19015KT 31/17 A3012 RMK A01 T03070167  RH  043%=      5-min Rain = 0
KBY1 121805Z 18015KT 31/17 A3011 RMK A01 T03060167  RH  043%=      5-min Rain = 0
KBY1 121806Z 18011G16KT 31/17 A3011 RMK A01 T03050168  RH  044%=      5-min Rain = 0
KBY1 121807Z 18015KT 31/17 A3011 RMK A01 T03070168  RH  043%=      5-min Rain = 0
KBY1 121808Z 19015KT 31/17 A3011 RMK A01 T03070167  RH  043%=      5-min Rain = 0
KBY1 121809Z 20009KT 31/17 A3012 RMK A01 T03060170  RH  044%=      5-min Rain = 0
KBY1 121810Z 21015KT 31/17 A3011 RMK A01 T03070171  RH  044%=      5-min Rain = 0
KBY1 121811Z 21013G19KT 31/17 A3011 RMK A01 T03080170  RH  044%=      5-min Rain = 0
KBY1 121812Z 19012G18KT 31/17 A3011 RMK A01 T03090170  RH  043%=      5-min Rain = 0
KBY1 121813Z 21015KT 31/17 A3011 RMK A01 T03110171  RH  043%=      5-min Rain = 0
KBY1 121814Z 21012KT 31/17 A3011 RMK A01 T03120170  RH  043%=      5-min Rain = 0
KBY1 121815Z 19014G21KT 32/17 A3011 RMK A01 T03160172  RH  042%=      5-min Rain = 0
KBY1 121816Z 18015KT 32/17 A3011 RMK A01 T03180168  RH  041%=      5-min Rain = 0
KBY1 121817Z 19014KT 32/17 A3011 RMK A01 T03190169  RH  040%=      5-min Rain = 0
KBY1 121818Z 20014G19KT 32/17 A3011 RMK A01 T03200168  RH  040%=      5-min Rain = 0
KBY1 121819Z 19017KT 32/17 A3011 RMK A01 T03210168  RH  040%=      5-min Rain = 0
KBY1 121820Z 19017KT 32/17 A3011 RMK A01 T03210168  RH  040%=      5-min Rain = 0
KBY1 121821Z 20013G18KT 32/17 A3011 RMK A01 T03190167  RH  040%=      5-min Rain = 0
KBY1 121822Z 21013KT 32/17 A3011 RMK A01 T03170168  RH  041%=      5-min Rain = 0
KBY1 121823Z 20017KT 32/17 A3011 RMK A01 T03170166  RH  040%=      5-min Rain = 0
KBY1 121824Z 20017G22KT 32/17 A3011 RMK A01 T03150165  RH  040%=      5-min Rain = 0
KBY1 121825Z 22011KT 31/16 A3011 RMK A01 T03130161  RH  040%=      5-min Rain = 0
KBY1 121826Z 22012G17KT 31/16 A3011 RMK A01 T03130159  RH  040%=      5-min Rain = 0
KBY1 121827Z 21014KT 31/16 A3011 RMK A01 T03130163  RH  040%=      5-min Rain = 0
KBY1 121828Z 20013KT 31/17 A3011 RMK A01 T03130166  RH  041%=      5-min Rain = 0
KBY1 121829Z 19013KT 31/17 A3011 RMK A01 T03120168  RH  042%=      5-min Rain = 0
KBY1 121830Z 20013G18KT 31/17 A3011 RMK A01 T03140169  RH  042%=      5-min Rain = 0
KBY1 121831Z 19014KT 32/17 A3011 RMK A01 T03160169  RH  041%=      5-min Rain = 0
KBY1 121832Z 19015KT 32/17 A3011 RMK A01 T03160167  RH  041%=      5-min Rain = 0
KBY1 121833Z 19014KT 32/17 A3011 RMK A01 T03160171  RH  042%=      5-min Rain = 0
KBY1 121834Z 17015G20KT 32/17 A3011 RMK A01 T03170169  RH  041%=      5-min Rain = 0
KBY1 121835Z 19014KT 32/17 A3011 RMK A01 T03170168  RH  041%=      5-min Rain = 0
KBY1 121836Z 19018KT 32/17 A3011 RMK A01 T03160169  RH  041%=      5-min Rain = 0
KBY1 121837Z 20015G20KT 32/17 A3011 RMK A01 T03150168  RH  041%=      5-min Rain = 0
KBY1 121838Z 20017KT 31/17 A3011 RMK A01 T03130168  RH  042%=      5-min Rain = 0
KBY1 121839Z 19016KT 31/17 A3011 RMK A01 T03130169  RH  042%=      5-min Rain = 0
KBY1 121840Z 19013KT 31/17 A3011 RMK A01 T03130170  RH  042%=      5-min Rain = 0
KBY1 121841Z 19017G22KT 31/17 A301 RMK A01 T03140170  RH  042%=      5-min Rain = 0
KBY1 121842Z 20015KT 31/17 A3011 RMK A01 T03140168  RH  042%=      5-min Rain = 0
KBY1 121843Z 19014G20KT 31/17 A3011 RMK A01 T03130170  RH  042%=      5-min Rain = 0
KBY1 121844Z 20017KT 31/17 A3011 RMK A01 T03130169  RH  042%=      5-min Rain = 0
KBY1 121845Z 20016KT 31/17 A3011 RMK A01 T03120169  RH  042%=      5-min Rain = 0
KBY1 121846Z 19017G22KT 31/17 A3011 RMK A01 T03100168  RH  042%=      5-min Rain = 0
KBY1 121847Z 20018KT 31/17 A3011 RMK A01 T03090167  RH  042%=      5-min Rain = 0
KBY1 121848Z 20014G19KT 31/17 A301 RMK A01 T03080167  RH  043%=      5-min Rain = 0
KBY1 121849Z 20014KT 31/17 A3011 RMK A01 T03080167  RH  043%=      5-min Rain = 0
KBY1 121850Z 20017G22KT 31/17 A301 RMK A01 T03100167  RH  042%=      5-min Rain = 0
KBY1 121851Z 22014KT 31/17 A301 RMK A01 T03100167  RH  042%=      5-min Rain = 0
KBY1 121852Z 21016G21KT 31/17 A301 RMK A01 T03110166  RH  042%=      5-min Rain = 0
KBY1 121853Z 21017KT 31/17 A301 RMK A01 T03110166  RH  042%=      5-min Rain = 0
KBY1 121854Z 21014KT 31/17 A301 RMK A01 T03120168  RH  042%=      5-min Rain = 0
KBY1 121855Z 21015KT 32/17 A301 RMK A01 T03150168  RH  041%=      5-min Rain = 0
KBY1 121856Z 21015KT 32/17 A301 RMK A01 T03190169  RH  041%=      5-min Rain = 0
KBY1 121857Z 21017KT 32/17 A301 RMK A01 T03230171  RH  040%=      5-min Rain = 0
KBY1 121858Z 20014G19KT 33/17 A301 RMK A01 T03270172  RH  040%=      5-min Rain = 0
KBY1 121859Z 20018KT 33/17 A301 RMK A01 T03270168  RH  039%=      5-min Rain = 0
KBY1 121900Z 20016KT 32/16 A301 RMK A01 T03240164  RH  038%=      5-min Rain = 0
KBY1 121901Z 20012KT 32/17 A301 RMK A01 T03210167  RH  040%=      5-min Rain = 0
KBY1 121902Z 20012KT 32/17 A301 RMK A01 T03230167  RH  039%=      5-min Rain = 0
KBY1 121903Z 20017KT 32/17 A301 RMK A01 T03220165  RH  039%=      5-min Rain = 0
KBY1 121904Z 19015KT 32/17 A301 RMK A01 T03210166  RH  039%=      5-min Rain = 0
KBY1 121905Z 19018G23KT 32/17 A301 RMK A01 T03230166  RH  039%=      5-min Rain = 0
KBY1 121906Z 19015KT 33/17 A301 RMK A01 T03260166  RH  038%=      5-min Rain = 0
KBY1 121907Z 19019KT 33/17 A301 RMK A01 T03260166  RH  038%=      5-min Rain = 0
KBY1 121908Z 19017KT 32/16 A301 RMK A01 T03230164  RH  038%=      5-min Rain = 0
KBY1 121909Z 19014KT 32/17 A301 RMK A01 T03230165  RH  039%=      5-min Rain = 0
KBY1 121910Z 20011KT 33/17 A301 RMK A01 T03270168  RH  039%=      5-min Rain = 0
KBY1 121911Z 20015G21KT 33/17 A301 RMK A01 T03320169  RH  038%=      5-min Rain = 0
KBY1 121912Z 19012KT 33/17 A301 RMK A01 T03340165  RH  036%=      5-min Rain = 0
KBY1 121913Z 21017G23KT 33/16 A301 RMK A01 T03340164  RH  036%=      5-min Rain = 0
KBY1 121914Z 22015KT 33/17 A301 RMK A01 T03320165  RH  037%=      5-min Rain = 0
KBY1 121915Z 19016G21KT 33/17 A301 RMK A01 T03310165  RH  037%=      5-min Rain = 0
KBY1 121916Z 20014KT 33/16 A301 RMK A01 T03300163  RH  037%=      5-min Rain = 0
KBY1 121917Z 20015KT 33/16 A301 RMK A01 T03270163  RH  037%=      5-min Rain = 0
KBY1 121918Z 19017G22KT 32/16 A301 RMK A01 T03240159  RH  037%=      5-min Rain = 0
KBY1 121919Z 20015KT 32/16 A301 RMK A01 T03220161  RH  038%=      5-min Rain = 0
KBY1 121920Z 20014G19KT 32/16 A3009 RMK A01 T03230161  RH  038%=      5-min Rain = 0
KBY1 121921Z 20013KT 33/16 A3009 RMK A01 T03250163  RH  038%=      5-min Rain = 0
KBY1 121922Z 20014KT 33/16 A3009 RMK A01 T03270164  RH  038%=      5-min Rain = 0
KBY1 121923Z 19014KT 33/16 A3009 RMK A01 T03290163  RH  037%=      5-min Rain = 0
KBY1 121924Z 21016KT 33/16 A3009 RMK A01 T03280162  RH  037%=      5-min Rain = 0
KBY1 121925Z 20014KT 33/16 A3009 RMK A01 T03280164  RH  038%=      5-min Rain = 0
KBY1 121926Z 17013G18KT 33/16 A3009 RMK A01 T03320164  RH  037%=      5-min Rain = 0
KBY1 121927Z 19013KT 33/17 A3009 RMK A01 T03340166  RH  037%=      5-min Rain = 0
KBY1 121928Z 19014KT 34/17 A3009 RMK A01 T03380166  RH  036%=      5-min Rain = 0
KBY1 121929Z 18012KT 34/16 A3009 RMK A01 T03370163  RH  035%=      5-min Rain = 0
KBY1 121930Z 20011KT 34/17 A3009 RMK A01 T03360166  RH  036%=      5-min Rain = 0
KBY1 121931Z 18014KT 34/17 A3008 RMK A01 T03380165  RH  036%=      5-min Rain = 0
KBY1 121932Z 17015KT 34/16 A3008 RMK A01 T03370162  RH  035%=      5-min Rain = 0
KBY1 121933Z 18013KT 33/16 A3008 RMK A01 T03330163  RH  036%=      5-min Rain = 0
KBY1 121934Z 17016KT 33/16 A3008 RMK A01 T03340164  RH  036%=      5-min Rain = 0
KBY1 121935Z 18014G20KT 34/16 A3008 RMK A01 T03360164  RH  036%=      5-min Rain = 0
KBY1 121936Z 18015G20KT 34/16 A3008 RMK A01 T03360163  RH  036%=      5-min Rain = 0
KBY1 121937Z 18014KT 34/16 A3008 RMK A01 T03360163  RH  035%=      5-min Rain = 0
KBY1 121938Z 20013KT 34/16 A3008 RMK A01 T03360163  RH  036%=      5-min Rain = 0
KBY1 121939Z 21017KT 34/16 A3007 RMK A01 T03370160  RH  035%=      5-min Rain = 0
KBY1 121940Z 21016G22KT 34/16 A3007 RMK A01 T03350158  RH  035%=      5-min Rain = 0
KBY1 121941Z 21015G23KT 33/16 A3007 RMK A01 T03330158  RH  035%=      5-min Rain = 0
KBY1 121942Z 20014G19KT 33/16 A3008 RMK A01 T03330160  RH  036%=      5-min Rain = 0
KBY1 121943Z 21017KT 33/16 A3008 RMK A01 T03340158  RH  035%=      5-min Rain = 0
KBY1 121944Z 19017KT 33/16 A3008 RMK A01 T03330158  RH  035%=      5-min Rain = 0
KBY1 121945Z 19014G19KT 33/16 A3008 RMK A01 T03320156  RH  035%=      5-min Rain = 0
KBY1 121946Z 21010KT 33/16 A3008 RMK A01 T03340161  RH  035%=      5-min Rain = 0
KBY1 121947Z 20012G20KT 34/16 A3008 RMK A01 T03380159  RH  034%=      5-min Rain = 0
KBY1 121948Z 21016KT 34/16 A3007 RMK A01 T03380161  RH  035%=      5-min Rain = 0
KBY1 121949Z 20016KT 34/16 A3008 RMK A01 T03390160  RH  034%=      5-min Rain = 0
KBY1 121950Z 20015G20KT 34/16 A3008 RMK A01 T03400160  RH  034%=      5-min Rain = 0
KBY1 121951Z 19015G20KT 34/15 A3008 RMK A01 T03400154  RH  033%=      5-min Rain = 0
KBY1 121952Z 18017KT 34/15 A3008 RMK A01 T03350151  RH  033%=      5-min Rain = 0
KBY1 121953Z 19013KT 33/15 A3008 RMK A01 T03300152  RH  034%=      5-min Rain = 0
KBY1 121954Z 19015KT 33/15 A3008 RMK A01 T03290152  RH  035%=      5-min Rain = 0
KBY1 121955Z 20016G21KT 33/15 A3008 RMK A01 T03280151  RH  034%=      5-min Rain = 0
KBY1 121956Z 20016KT 33/15 A3008 RMK A01 T03270148  RH  034%=      5-min Rain = 0
KBY1 121957Z 20016KT 32/15 A3008 RMK A01 T03240146  RH  034%=      5-min Rain = 0
KBY1 121958Z 20014KT 32/15 A3008 RMK A01 T03230149  RH  035%=      5-min Rain = 0
KBY1 121959Z 19012KT 32/15 A3008 RMK A01 T03240148  RH  035%=      5-min Rain = 0
KBY1 122000Z 20013KT 32/15 A3008 RMK A01 T03240146  RH  034%=      5-min Rain = 0
KBY1 122001Z 21015KT 33/15 A3008 RMK A01 T03250147  RH  034%=      5-min Rain = 0
KBY1 122002Z 20014G19KT 32/15 A3008 RMK A01 T03240146  RH  034%=      5-min Rain = 0
KBY1 122003Z 20016G21KT 32/15 A3008 RMK A01 T03240150  RH  035%=      5-min Rain = 0
KBY1 122004Z 21015KT 33/15 A3008 RMK A01 T03250153  RH  035%=      5-min Rain = 0
KBY1 122005Z 21014KT 33/15 A3007 RMK A01 T03260154  RH  036%=      5-min Rain = 0
KBY1 122006Z 21011KT 33/16 A3007 RMK A01 T03290157  RH  036%=      5-min Rain = 0
KBY1 122007Z 21010KT 33/16 A3007 RMK A01 T03310156  RH  035%=      5-min Rain = 0
KBY1 122008Z 21010KT 33/16 A3007 RMK A01 T03320157  RH  035%=      5-min Rain = 0
KBY1 122009Z 18013KT 33/16 A3007 RMK A01 T03340155  RH  034%=      5-min Rain = 0
KBY1 122010Z 20013KT 33/16 A3007 RMK A01 T03330155  RH  034%=      5-min Rain = 0
KBY1 122011Z 20017KT 33/16 A3007 RMK A01 T03320155  RH  035%=      5-min Rain = 0
KBY1 122012Z 20014KT 33/15 A3007 RMK A01 T03270154  RH  035%=      5-min Rain = 0
KBY1 122013Z 19014KT 33/16 A3007 RMK A01 T03270156  RH  036%=      5-min Rain = 0
KBY1 122014Z 19013G18KT 33/16 A3007 RMK A01 T03270156  RH  036%=      5-min Rain = 0
KBY1 122015Z 20014G19KT 33/16 A3007 RMK A01 T03250155  RH  036%=      5-min Rain = 0
KBY1 122016Z 20015KT 32/16 A3007 RMK A01 T03240156  RH  037%=      5-min Rain = 0
KBY1 122017Z 20012G18KT 32/16 A3007 RMK A01 T03230157  RH  037%=      5-min Rain = 0
KBY1 122018Z 20012KT 32/16 A3007 RMK A01 T03220158  RH  037%=      5-min Rain = 0
KBY1 122019Z 20012KT 32/16 A3007 RMK A01 T03220155  RH  036%=      5-min Rain = 0
KBY1 122020Z 20010KT 32/16 A3007 RMK A01 T03210155  RH  037%=      5-min Rain = 0
KBY1 122021Z 20017KT 32/16 A3007 RMK A01 T03210155  RH  037%=      5-min Rain = 0
KBY1 122022Z 18015KT 32/16 A3007 RMK A01 T03210155  RH  037%=      5-min Rain = 0
KBY1 122023Z 21016G22KT 32/15 A3007 RMK A01 T03220154  RH  036%=      5-min Rain = 0
KBY1 122024Z 20014KT 32/15 A3007 RMK A01 T03210153  RH  036%=      5-min Rain = 0
KBY1 122025Z 20014G21KT 32/15 A3007 RMK A01 T03200152  RH  036%=      5-min Rain = 0
KBY1 122026Z 20013KT 32/15 A3007 RMK A01 T03200151  RH  036%=      5-min Rain = 0
KBY1 122027Z 19017KT 32/15 A3007 RMK A01 T03200149  RH  035%=      5-min Rain = 0
KBY1 122028Z 21016G21KT 32/15 A3007 RMK A01 T03200145  RH  035%=      5-min Rain = 0
KBY1 122029Z 21018KT 32/14 A3007 RMK A01 T03200143  RH  034%=      5-min Rain = 0
KBY1 122030Z 21016G21KT 32/14 A3007 RMK A01 T03200140  RH  034%=      5-min Rain = 0
KBY1 122031Z 20015G21KT 32/14 A3007 RMK A01 T03200138  RH  033%=      5-min Rain = 0
KBY1 122032Z 21015KT 32/14 A3007 RMK A01 T03200140  RH  034%=      5-min Rain = 0
KBY1 122033Z 20014KT 32/14 A3007 RMK A01 T03200142  RH  034%=      5-min Rain = 0
KBY1 122034Z 21013G18KT 32/15 A3007 RMK A01 T03200147  RH  035%=      5-min Rain = 0
KBY1 122035Z 21014G19KT 32/15 A3007 RMK A01 T03190149  RH  036%=      5-min Rain = 0
KBY1 122036Z 21014G19KT 32/15 A3007 RMK A01 T03180148  RH  036%=      5-min Rain = 0
KBY1 122037Z 23011G17KT 32/15 A3007 RMK A01 T03200148  RH  035%=      5-min Rain = 0
KBY1 122038Z 22011G16KT 32/15 A3007 RMK A01 T03230151  RH  036%=      5-min Rain = 0
KBY1 122039Z 22014G19KT 33/16 A3007 RMK A01 T03260156  RH  036%=      5-min Rain = 0
KBY1 122040Z 23016KT 33/16 A3007 RMK A01 T03280156  RH  036%=      5-min Rain = 0
KBY1 122041Z 21014KT 33/16 A3007 RMK A01 T03270156  RH  036%=      5-min Rain = 0
KBY1 122042Z 22009KT 32/16 A3007 RMK A01 T03230157  RH  037%=      5-min Rain = 0
KBY1 122043Z 22009KT 32/16 A3007 RMK A01 T03220158  RH  037%=      5-min Rain = 0
KBY1 122044Z 21015G20KT 32/15 A3007 RMK A01 T03220152  RH  036%=      5-min Rain = 0
KBY1 122045Z 22016G24KT 32/15 A3007 RMK A01 T03240154  RH  036%=      5-min Rain = 0
KBY1 122046Z 22017KT 33/16 A3007 RMK A01 T03260156  RH  036%=      5-min Rain = 0
KBY1 122047Z 21014KT 33/16 A3007 RMK A01 T03270157  RH  036%=      5-min Rain = 0
KBY1 122048Z 21011KT 33/16 A3007 RMK A01 T03300156  RH  035%=      5-min Rain = 0
KBY1 122049Z 22013KT 33/15 A3007 RMK A01 T03330154  RH  034%=      5-min Rain = 0
KBY1 122050Z 21016KT 33/15 A3007 RMK A01 T03310150  RH  034%=      5-min Rain = 0
KBY1 122051Z 22016G21KT 33/15 A3007 RMK A01 T03260148  RH  034%=      5-min Rain = 0
KBY1 122052Z 22017KT 32/15 A3007 RMK A01 T03230149  RH  035%=      5-min Rain = 0
KBY1 122053Z 23013KT 32/15 A3007 RMK A01 T03220151  RH  036%=      5-min Rain = 0
KBY1 122054Z 22013KT 32/15 A3007 RMK A01 T03230152  RH  036%=      5-min Rain = 0
KBY1 122055Z 21012KT 33/16 A3007 RMK A01 T03250157  RH  036%=      5-min Rain = 0
KBY1 122056Z 21014KT 33/16 A3007 RMK A01 T03260155  RH  036%=      5-min Rain = 0
KBY1 122057Z 21012KT 33/16 A3007 RMK A01 T03270157  RH  036%=      5-min Rain = 0
KBY1 122058Z 21012KT 33/16 A3007 RMK A01 T03320157  RH  035%=      5-min Rain = 0
KBY1 122059Z 21013KT 34/15 A3007 RMK A01 T03350152  RH  033%=      5-min Rain = 0
KBY1 122100Z 21016G21KT 34/15 A3007 RMK A01 T03370146  RH  032%=      5-min Rain = 0
KBY1 122101Z 21016G21KT 34/15 A3007 RMK A01 T03370145  RH  031%=      5-min Rain = 0
KBY1 122102Z 21018KT 34/15 A3007 RMK A01 T03360146  RH  032%=      5-min Rain = 0
KBY1 122103Z 21015G21KT 33/15 A3007 RMK A01 T03340147  RH  032%=      5-min Rain = 0
KBY1 122104Z 21015KT 33/15 A3007 RMK A01 T03330148  RH  033%=      5-min Rain = 0
KBY1 122105Z 22013G18KT 33/14 A3007 RMK A01 T03300144  RH  033%=      5-min Rain = 0
KBY1 122106Z 21014G19KT 33/14 A3007 RMK A01 T03270143  RH  033%=      5-min Rain = 0
KBY1 122107Z 19013KT 33/15 A3007 RMK A01 T03260146  RH  034%=      5-min Rain = 0
KBY1 122108Z 19012G18KT 33/15 A3007 RMK A01 T03260146  RH  034%=      5-min Rain = 0
KBY1 122109Z 18009KT 33/15 A3007 RMK A01 T03270149  RH  034%=      5-min Rain = 0
KBY1 122110Z 20008KT 33/15 A3007 RMK A01 T03290151  RH  034%=      5-min Rain = 0
KBY1 122111Z 22012KT 33/15 A3007 RMK A01 T03310149  RH  033%=      5-min Rain = 0
KBY1 122112Z 20014KT 33/14 A3007 RMK A01 T03320141  RH  032%=      5-min Rain = 0
KBY1 122113Z 21014KT 33/14 A3006 RMK A01 T03310143  RH  032%=      5-min Rain = 0
KBY1 122114Z 22013KT 33/15 A3006 RMK A01 T03290146  RH  033%=      5-min Rain = 0
KBY1 122115Z 21011G16KT 33/15 A3006 RMK A01 T03300149  RH  033%=      5-min Rain = 0
KBY1 122116Z 21011KT 33/15 A3006 RMK A01 T03310147  RH  033%=      5-min Rain = 0
KBY1 122117Z 20011KT 33/15 A3006 RMK A01 T03320150  RH  033%=      5-min Rain = 0
KBY1 122118Z 21009KT 33/15 A3006 RMK A01 T03330152  RH  034%=      5-min Rain = 0
KBY1 122119Z 22011KT 33/16 A3006 RMK A01 T03340155  RH  034%=      5-min Rain = 0
KBY1 122120Z 22014KT 33/15 A3006 RMK A01 T03340152  RH  033%=      5-min Rain = 0
KBY1 122121Z 19012KT 33/15 A3006 RMK A01 T03330151  RH  034%=      5-min Rain = 0
KBY1 122122Z 19013KT 33/15 A3006 RMK A01 T03320150  RH  033%=      5-min Rain = 0
KBY1 122123Z 18010KT 33/15 A3006 RMK A01 T03300149  RH  034%=      5-min Rain = 0
KBY1 122124Z 19011KT 33/15 A3006 RMK A01 T03290145  RH  033%=      5-min Rain = 0
KBY1 122125Z 18010KT 33/15 A3006 RMK A01 T03280148  RH  034%=      5-min Rain = 0
KBY1 122126Z 17013KT 33/15 A3006 RMK A01 T03290146  RH  033%=      5-min Rain = 0
KBY1 122127Z 18011KT 33/14 A3006 RMK A01 T03290144  RH  033%=      5-min Rain = 0
KBY1 122128Z 18007KT 33/14 A3006 RMK A01 T03290144  RH  033%=      5-min Rain = 0
KBY1 122129Z 17011G16KT 33/15 A3006 RMK A01 T03290147  RH  033%=      5-min Rain = 0
KBY1 122130Z 19009KT 33/14 A3006 RMK A01 T03310143  RH  032%=      5-min Rain = 0
KBY1 122131Z 17009KT 33/14 A3006 RMK A01 T03320143  RH  032%=      5-min Rain = 0
KBY1 122132Z 18009KT 33/14 A3006 RMK A01 T03340144  RH  032%=      5-min Rain = 0
KBY1 122133Z 17010KT 34/15 A3006 RMK A01 T03350146  RH  032%=      5-min Rain = 0
KBY1 122134Z 17011KT 34/14 A3005 RMK A01 T03360144  RH  032%=      5-min Rain = 0
KBY1 122135Z 18012G17KT 34/15 A3005 RMK A01 T03350146  RH  032%=      5-min Rain = 0
KBY1 122136Z 17014KT 34/14 A3005 RMK A01 T03360144  RH  031%=      5-min Rain = 0
KBY1 122137Z 18012G17KT 34/15 A3005 RMK A01 T03360148  RH  032%=      5-min Rain = 0
KBY1 122138Z 19014KT 34/15 A3006 RMK A01 T03380145  RH  031%=      5-min Rain = 0
KBY1 122139Z 19010KT 34/14 A3006 RMK A01 T03360144  RH  031%=      5-min Rain = 0
KBY1 122140Z 19015KT 34/15 A3006 RMK A01 T03390151  RH  032%=      5-min Rain = 0
KBY1 122141Z 17014KT 34/15 A3006 RMK A01 T03400147  RH  031%=      5-min Rain = 0
KBY1 122142Z 17012KT 34/14 A3006 RMK A01 T03380141  RH  031%=      5-min Rain = 0
KBY1 122143Z 18011KT 34/14 A3006 RMK A01 T03380144  RH  031%=      5-min Rain = 0
KBY1 122144Z 20013KT 34/15 A3006 RMK A01 T03390148  RH  032%=      5-min Rain = 0
KBY1 122145Z 20014KT 34/15 A3005 RMK A01 T03400150  RH  032%=      5-min Rain = 0
KBY1 122146Z 20013KT 34/15 A3005 RMK A01 T03380154  RH  033%=      5-min Rain = 0
KBY1 122147Z 21012KT 34/15 A3005 RMK A01 T03370152  RH  033%=      5-min Rain = 0
KBY1 122148Z 21010KT 34/15 A3005 RMK A01 T03360150  RH  033%=      5-min Rain = 0
KBY1 122149Z 21010KT 34/15 A3005 RMK A01 T03360150  RH  033%=      5-min Rain = 0
KBY1 122150Z 19014G19KT 34/15 A3005 RMK A01 T03360152  RH  033%=      5-min Rain = 0
KBY1 122151Z 18014KT 34/15 A3005 RMK A01 T03360148  RH  032%=      5-min Rain = 0
KBY1 122152Z 19010KT 34/15 A3005 RMK A01 T03360149  RH  033%=      5-min Rain = 0
KBY1 122153Z 18013KT 34/15 A3005 RMK A01 T03390147  RH  032%=      5-min Rain = 0
KBY1 122154Z 16013G19KT 34/15 A3005 RMK A01 T03390147  RH  031%=      5-min Rain = 0
KBY1 122155Z 18017KT 34/15 A3005 RMK A01 T03380146  RH  032%=      5-min Rain = 0
KBY1 122156Z 17011G16KT 34/15 A3005 RMK A01 T03380147  RH  032%=      5-min Rain = 0
KBY1 122157Z 18009KT 34/15 A3005 RMK A01 T03380148  RH  032%=      5-min Rain = 0
KBY1 122158Z 20011KT 34/15 A3005 RMK A01 T03380149  RH  032%=      5-min Rain = 0
KBY1 122159Z 19015G21KT 34/15 A3005 RMK A01 T03380148  RH  032%=      5-min Rain = 0
KBY1 122200Z 19015KT 34/14 A3005 RMK A01 T03370143  RH  031%=      5-min Rain = 0
KBY1 122201Z 19014KT 34/14 A3005 RMK A01 T03350143  RH  031%=      5-min Rain = 0
KBY1 122202Z 18011KT 33/14 A3005 RMK A01 T03330144  RH  032%=      5-min Rain = 0
KBY1 122203Z 19009KT 33/15 A3005 RMK A01 T03340147  RH  033%=      5-min Rain = 0
KBY1 122204Z 19012KT 34/15 A3005 RMK A01 T03390149  RH  032%=      5-min Rain = 0
KBY1 122205Z 20011KT 34/15 A3005 RMK A01 T03420152  RH  032%=      5-min Rain = 0
KBY1 122206Z 20011G16KT 35/15 A3005 RMK A01 T03450152  RH  032%=      5-min Rain = 0
KBY1 122207Z 20010KT 35/15 A3005 RMK A01 T03470151  RH  031%=      5-min Rain = 0
KBY1 122208Z 19011G16KT 35/15 A3005 RMK A01 T03460150  RH  031%=      5-min Rain = 0
KBY1 122209Z 19012KT 34/15 A3005 RMK A01 T03410148  RH  031%=      5-min Rain = 0
KBY1 122210Z 19012G17KT 34/15 A3005 RMK A01 T03390147  RH  032%=      5-min Rain = 0
KBY1 122211Z 19009KT 34/15 A3005 RMK A01 T03370149  RH  032%=      5-min Rain = 0
KBY1 122212Z 19014KT 34/15 A3005 RMK A01 T03380151  RH  033%=      5-min Rain = 0
KBY1 122213Z 17013KT 34/15 A3005 RMK A01 T03400147  RH  031%=      5-min Rain = 0
KBY1 122214Z 16014KT 34/15 A3005 RMK A01 T03430148  RH  031%=      5-min Rain = 0
KBY1 122215Z 16015KT 34/14 A3005 RMK A01 T03420144  RH  030%=      5-min Rain = 0
KBY1 122216Z 18012KT 34/15 A3005 RMK A01 T03380145  RH  031%=      5-min Rain = 0
KBY1 122217Z 19013KT 34/15 A3005 RMK A01 T03380149  RH  032%=      5-min Rain = 0
KBY1 122218Z 17013KT 34/15 A3005 RMK A01 T03390149  RH  032%=      5-min Rain = 0
KBY1 122219Z 17011KT 34/15 A3005 RMK A01 T03410150  RH  032%=      5-min Rain = 0
KBY1 122220Z 18009KT 35/15 A3005 RMK A01 T03450154  RH  032%=      5-min Rain = 0
KBY1 122221Z 18008KT 35/15 A3005 RMK A01 T03490151  RH  031%=      5-min Rain = 0
KBY1 122222Z 17009KT 35/15 A3005 RMK A01 T03510149  RH  030%=      5-min Rain = 0
KBY1 122223Z 17007KT 35/15 A3005 RMK A01 T03510151  RH  030%=      5-min Rain = 0
KBY1 122224Z 18011G17KT 35/15 A3005 RMK A01 T03520150  RH  030%=      5-min Rain = 0
KBY1 122225Z 19017KT 35/15 A3005 RMK A01 T03490147  RH  030%=      5-min Rain = 0
KBY1 122226Z 18013G18KT 35/14 A3005 RMK A01 T03450144  RH  030%=      5-min Rain = 0
KBY1 122227Z 18013KT 34/15 A3005 RMK A01 T03420146  RH  031%=      5-min Rain = 0
KBY1 122228Z 17011KT 34/15 A3005 RMK A01 T03430146  RH  031%=      5-min Rain = 0
KBY1 122229Z 18011KT 35/14 A3005 RMK A01 T03450143  RH  030%=      5-min Rain = 0
KBY1 122230Z 19015KT 34/14 A3004 RMK A01 T03430144  RH  030%=      5-min Rain = 0
KBY1 122231Z 20011KT 34/15 A3005 RMK A01 T03410146  RH  031%=      5-min Rain = 0
KBY1 122232Z 20011KT 34/14 A3005 RMK A01 T03410143  RH  030%=      5-min Rain = 0
KBY1 122233Z 19012G18KT 34/15 A3005 RMK A01 T03420145  RH  031%=      5-min Rain = 0
KBY1 122234Z 20014KT 34/14 A3005 RMK A01 T03420142  RH  030%=      5-min Rain = 0
KBY1 122235Z 21013G18KT 34/14 A3004 RMK A01 T03400143  RH  031%=      5-min Rain = 0
KBY1 122236Z 21014KT 34/14 A3005 RMK A01 T03390143  RH  031%=      5-min Rain = 0
KBY1 122237Z 22013KT 34/14 A3005 RMK A01 T03390142  RH  031%=      5-min Rain = 0
KBY1 122238Z 22011KT 34/14 A3005 RMK A01 T03380144  RH  031%=      5-min Rain = 0
KBY1 122239Z 22011KT 34/15 A3005 RMK A01 T03400147  RH  031%=      5-min Rain = 0
KBY1 122240Z 21012KT 34/15 A3005 RMK A01 T03400147  RH  031%=      5-min Rain = 0
KBY1 122241Z 20011G16KT 34/15 A3005 RMK A01 T03400151  RH  032%=      5-min Rain = 0
KBY1 122242Z 18013KT 34/15 A3005 RMK A01 T03410148  RH  031%=      5-min Rain = 0
KBY1 122243Z 19010KT 34/15 A3005 RMK A01 T03410146  RH  031%=      5-min Rain = 0
KBY1 122244Z 17008KT 34/15 A3005 RMK A01 T03390146  RH  031%=      5-min Rain = 0
KBY1 122245Z 18012G17KT 34/15 A3005 RMK A01 T03410147  RH  031%=      5-min Rain = 0
KBY1 122246Z 19015KT 34/15 A3005 RMK A01 T03420149  RH  031%=      5-min Rain = 0
KBY1 122247Z 19012KT 34/15 A3005 RMK A01 T03410147  RH  031%=      5-min Rain = 0
KBY1 122248Z 19012KT 34/15 A3005 RMK A01 T03390150  RH  032%=      5-min Rain = 0
KBY1 122249Z 19014KT 34/15 A3005 RMK A01 T03390151  RH  032%=      5-min Rain = 0
KBY1 122250Z 19011KT 34/16 A3005 RMK A01 T03380155  RH  033%=      5-min Rain = 0
KBY1 122251Z 17007KT 34/15 A3005 RMK A01 T03380153  RH  033%=      5-min Rain = 0
KBY1 122252Z 18011KT 34/15 A3005 RMK A01 T03390154  RH  033%=      5-min Rain = 0
KBY1 122253Z 17013KT 34/15 A3005 RMK A01 T03390153  RH  033%=      5-min Rain = 0
KBY1 122254Z 16012G18KT 34/15 A3005 RMK A01 T03370151  RH  033%=      5-min Rain = 0
KBY1 122255Z 16013KT 34/15 A3005 RMK A01 T03370148  RH  032%=      5-min Rain = 0
KBY1 122256Z 19012G17KT 34/15 A3005 RMK A01 T03370152  RH  033%=      5-min Rain = 0
KBY1 122257Z 20016KT 34/15 A3005 RMK A01 T03380150  RH  032%=      5-min Rain = 0
KBY1 122258Z 21013KT 34/15 A3005 RMK A01 T03350148  RH  033%=      5-min Rain = 0
KBY1 122259Z 20011KT 33/15 A3005 RMK A01 T03310147  RH  033%=      5-min Rain = 0
KBY1 122300Z 21014KT 33/15 A3004 RMK A01 T03290146  RH  033%=      5-min Rain = 0
KBY1 122301Z 18012KT 33/14 A3005 RMK A01 T03260144  RH  033%=      5-min Rain = 0
KBY1 122302Z 19008KT 33/15 A3005 RMK A01 T03260146  RH  034%=      5-min Rain = 0
KBY1 122303Z 15009KT 33/15 A3005 RMK A01 T03260146  RH  034%=      5-min Rain = 0
KBY1 122304Z 16012KT 33/15 A3004 RMK A01 T03280146  RH  033%=      5-min Rain = 0
KBY1 122305Z 15013KT 33/15 A3004 RMK A01 T03310147  RH  033%=      5-min Rain = 0
KBY1 122306Z 16014KT 33/15 A3004 RMK A01 T03330148  RH  033%=      5-min Rain = 0
KBY1 122307Z 18012KT 33/15 A3004 RMK A01 T03330148  RH  033%=      5-min Rain = 0
KBY1 122308Z 18016KT 33/15 A3004 RMK A01 T03340149  RH  033%=      5-min Rain = 0
KBY1 122309Z 17011G16KT 34/15 A3004 RMK A01 T03350150  RH  033%=      5-min Rain = 0
KBY1 122310Z 17014KT 34/15 A3004 RMK A01 T03360149  RH  033%=      5-min Rain = 0
KBY1 122311Z 18012KT 34/15 A3004 RMK A01 T03360149  RH  032%=      5-min Rain = 0
KBY1 122312Z 17010KT 33/15 A3004 RMK A01 T03340148  RH  033%=      5-min Rain = 0
KBY1 122313Z 18009KT 33/15 A3004 RMK A01 T03340148  RH  033%=      5-min Rain = 0
KBY1 122314Z 17010KT 33/15 A3004 RMK A01 T03340149  RH  033%=      5-min Rain = 0
KBY1 122315Z 17014KT 34/15 A3004 RMK A01 T03350150  RH  033%=      5-min Rain = 0
KBY1 122316Z 17013KT 34/15 A3004 RMK A01 T03360150  RH  033%=      5-min Rain = 0
KBY1 122317Z 16013KT 34/15 A3004 RMK A01 T03350147  RH  032%=      5-min Rain = 0
KBY1 122318Z 18013KT 34/15 A3004 RMK A01 T03350148  RH  033%=      5-min Rain = 0
KBY1 122319Z 18014KT 34/15 A3004 RMK A01 T03350148  RH  032%=      5-min Rain = 0
KBY1 122320Z 19012KT 34/15 A3004 RMK A01 T03350149  RH  033%=      5-min Rain = 0
KBY1 122321Z 19010KT 34/15 A3004 RMK A01 T03350150  RH  033%=      5-min Rain = 0
KBY1 122322Z 18010KT 34/15 A3004 RMK A01 T03370152  RH  033%=      5-min Rain = 0
KBY1 122323Z 17013KT 34/15 A3004 RMK A01 T03420150  RH  032%=      5-min Rain = 0
KBY1 122324Z 16011KT 34/15 A3004 RMK A01 T03410148  RH  031%=      5-min Rain = 0
KBY1 122325Z 16012G20KT 34/15 A3004 RMK A01 T03400149  RH  032%=      5-min Rain = 0
KBY1 122326Z 16014G19KT 34/14 A3004 RMK A01 T03400144  RH  031%=      5-min Rain = 0
KBY1 122327Z 19013KT 34/15 A3004 RMK A01 T03370145  RH  032%=      5-min Rain = 0
KBY1 122328Z 19013KT 34/14 A3004 RMK A01 T03370144  RH  031%=      5-min Rain = 0
KBY1 122329Z 21012KT 34/15 A3004 RMK A01 T03350145  RH  032%=      5-min Rain = 0
KBY1 122330Z 20013KT 33/15 A3004 RMK A01 T03320148  RH  033%=      5-min Rain = 0
KBY1 122331Z 20013KT 33/15 A3004 RMK A01 T03310146  RH  033%=      5-min Rain = 0
KBY1 122332Z 19014KT 33/14 A3004 RMK A01 T03300144  RH  033%=      5-min Rain = 0
KBY1 122333Z 20010KT 33/15 A3004 RMK A01 T03290145  RH  033%=      5-min Rain = 0
KBY1 122334Z 18011KT 33/14 A3004 RMK A01 T03290144  RH  033%=      5-min Rain = 0
KBY1 122335Z 18012KT 33/15 A3004 RMK A01 T03310146  RH  033%=      5-min Rain = 0
KBY1 122336Z 18009G15KT 33/15 A3004 RMK A01 T03310148  RH  033%=      5-min Rain = 0
KBY1 122337Z 19010KT 33/15 A3004 RMK A01 T03310148  RH  033%=      5-min Rain = 0
KBY1 122338Z 17010KT 33/15 A3004 RMK A01 T03300148  RH  034%=      5-min Rain = 0
KBY1 122339Z 16011KT 33/15 A3004 RMK A01 T03290149  RH  034%=      5-min Rain = 0
KBY1 122340Z 16011KT 33/15 A3004 RMK A01 T03300148  RH  033%=      5-min Rain = 0
KBY1 122341Z 20010G15KT 33/15 A3004 RMK A01 T03310148  RH  033%=      5-min Rain = 0
KBY1 122342Z 19013KT 33/15 A3004 RMK A01 T03330151  RH  033%=      5-min Rain = 0
KBY1 122343Z 18010KT 33/15 A3004 RMK A01 T03340152  RH  033%=      5-min Rain = 0
KBY1 122344Z 18010KT 34/15 A3004 RMK A01 T03360152  RH  033%=      5-min Rain = 0
KBY1 122345Z 19009KT 34/15 A3003 RMK A01 T03360153  RH  033%=      5-min Rain = 0
KBY1 122346Z 20012KT 34/15 A3003 RMK A01 T03360152  RH  033%=      5-min Rain = 0
KBY1 122347Z 19010KT 34/15 A3003 RMK A01 T03350152  RH  033%=      5-min Rain = 0
KBY1 122348Z 21010KT 34/15 A3003 RMK A01 T03350154  RH  034%=      5-min Rain = 0
KBY1 122349Z 20011KT 34/16 A3003 RMK A01 T03350157  RH  034%=      5-min Rain = 0
KBY1 122350Z 19013KT 34/16 A3003 RMK A01 T03370155  RH  034%=      5-min Rain = 0
KBY1 122351Z 20013KT 34/16 A3003 RMK A01 T03370155  RH  034%=      5-min Rain = 0
KBY1 122352Z 18013KT 34/15 A3003 RMK A01 T03350154  RH  034%=      5-min Rain = 0
KBY1 122353Z 19011KT 33/15 A3003 RMK A01 T03340154  RH  034%=      5-min Rain = 0
KBY1 122354Z 19010KT 33/15 A3003 RMK A01 T03340154  RH  034%=      5-min Rain = 0
KBY1 122355Z 18012KT 33/15 A3003 RMK A01 T03330154  RH  034%=      5-min Rain = 0
KBY1 122356Z 17012KT 33/15 A3003 RMK A01 T03320153  RH  034%=      5-min Rain = 0
KBY1 122357Z 19011KT 33/15 A3003 RMK A01 T03320154  RH  034%=      5-min Rain = 0
KBY1 122358Z 18011G16KT 33/15 A3003 RMK A01 T03310154  RH  034%=      5-min Rain = 0
KBY1 122359Z 19012KT 33/15 A3003 RMK A01 T03320153  RH  034%=      5-min Rain = 0
KBY1 130000Z 18013KT 33/15 A3003 RMK A01 T03320152  RH  034%=      5-min Rain = 0
KBY1 130001Z 19012KT 33/15 A3003 RMK A01 T03320152  RH  034%=      5-min Rain = 0
KBY1 130002Z 19010KT 33/15 A3003 RMK A01 T03310153  RH  034%=      5-min Rain = 0
KBY1 130003Z 19009KT 33/15 A3003 RMK A01 T03310154  RH  035%=      5-min Rain = 0
KBY1 130004Z 19010KT 33/15 A3003 RMK A01 T03310154  RH  035%=      5-min Rain = 0
KBY1 130005Z 18010KT 33/15 A3003 RMK A01 T03300152  RH  034%=      5-min Rain = 0
KBY1 130006Z 17013G18KT 33/15 A3003 RMK A01 T03280152  RH  035%=      5-min Rain = 0
KBY1 130007Z 18015KT 33/15 A3003 RMK A01 T03270151  RH  035%=      5-min Rain = 0
KBY1 130008Z 18013KT 33/15 A3003 RMK A01 T03250148  RH  035%=      5-min Rain = 0
KBY1 130009Z 17012KT 32/15 A3003 RMK A01 T03240150  RH  035%=      5-min Rain = 0
KBY1 130010Z 19008KT 32/15 A3003 RMK A01 T03240150  RH  035%=      5-min Rain = 0
KBY1 130011Z 17013KT 33/15 A3003 RMK A01 T03250151  RH  035%=      5-min Rain = 0
KBY1 130012Z 17013KT 33/15 A3003 RMK A01 T03250151  RH  035%=      5-min Rain = 0
KBY1 130013Z 19011G18KT 33/15 A3003 RMK A01 T03270152  RH  035%=      5-min Rain = 0
KBY1 130014Z 19015KT 33/15 A3003 RMK A01 T03280146  RH  033%=      5-min Rain = 0
KBY1 130015Z 19014KT 33/15 A3003 RMK A01 T03280145  RH  033%=      5-min Rain = 0
KBY1 130016Z 19015KT 33/14 A3003 RMK A01 T03270144  RH  033%=      5-min Rain = 0
KBY1 130017Z 19014KT 33/14 A3003 RMK A01 T03250142  RH  033%=      5-min Rain = 0
KBY1 130018Z 19012KT 32/14 A3003 RMK A01 T03220142  RH  034%=      5-min Rain = 0
KBY1 130019Z 19013KT 32/14 A3003 RMK A01 T03210142  RH  034%=      5-min Rain = 0
KBY1 130020Z 19011KT 32/14 A3003 RMK A01 T03200142  RH  034%=      5-min Rain = 0
KBY1 130021Z 19014KT 32/14 A3003 RMK A01 T03200142  RH  034%=      5-min Rain = 0
KBY1 130022Z 20010KT 32/14 A3003 RMK A01 T03190141  RH  034%=      5-min Rain = 0
KBY1 130023Z 21014KT 32/14 A3003 RMK A01 T03200141  RH  034%=      5-min Rain = 0
KBY1 130024Z 21015KT 32/14 A3002 RMK A01 T03200140  RH  034%=      5-min Rain = 0
KBY1 130025Z 20013KT 32/14 A3003 RMK A01 T03200140  RH  034%=      5-min Rain = 0
KBY1 130026Z 19012KT 32/14 A3003 RMK A01 T03200141  RH  034%=      5-min Rain = 0
KBY1 130027Z 19013G19KT 32/14 A3003 RMK A01 T03180140  RH  034%=      5-min Rain = 0
KBY1 130028Z 20015KT 32/14 A3003 RMK A01 T03170140  RH  034%=      5-min Rain = 0
KBY1 130029Z 20014KT 32/14 A3003 RMK A01 T03170140  RH  034%=      5-min Rain = 0
KBY1 130030Z 20014KT 32/14 A3003 RMK A01 T03160140  RH  034%=      5-min Rain = 0
KBY1 130031Z 19014KT 32/14 A3003 RMK A01 T03160140  RH  034%=      5-min Rain = 0
KBY1 130032Z 20016KT 32/14 A3003 RMK A01 T03150140  RH  035%=      5-min Rain = 0
KBY1 130033Z 20012KT 31/14 A3003 RMK A01 T03140140  RH  035%=      5-min Rain = 0
KBY1 130034Z 20011KT 31/14 A3003 RMK A01 T03140140  RH  035%=      5-min Rain = 0
KBY1 130035Z 19013KT 31/14 A3003 RMK A01 T03130140  RH  035%=      5-min Rain = 0
KBY1 130036Z 18014KT 31/14 A3003 RMK A01 T03130140  RH  035%=      5-min Rain = 0
KBY1 130037Z 19015KT 31/14 A3003 RMK A01 T03130141  RH  035%=      5-min Rain = 0
KBY1 130038Z 20011KT 31/14 A3003 RMK A01 T03130141  RH  035%=      5-min Rain = 0
KBY1 130039Z 20010KT 31/14 A3003 RMK A01 T03120141  RH  035%=      5-min Rain = 0
KBY1 130040Z 20011KT 31/14 A3003 RMK A01 T03120142  RH  036%=      5-min Rain = 0
KBY1 130041Z 20012KT 31/14 A3003 RMK A01 T03120142  RH  036%=      5-min Rain = 0
KBY1 130042Z 21011KT 31/14 A3003 RMK A01 T03120142  RH  036%=      5-min Rain = 0
KBY1 130043Z 20012KT 31/14 A3003 RMK A01 T03120142  RH  036%=      5-min Rain = 0
KBY1 130044Z 20013G18KT 31/14 A3003 RMK A01 T03120143  RH  036%=      5-min Rain = 0
KBY1 130045Z 19013KT 31/14 A3003 RMK A01 T03110143  RH  036%=      5-min Rain = 0
KBY1 130046Z 19013KT 31/14 A3003 RMK A01 T03120143  RH  036%=      5-min Rain = 0
KBY1 130047Z 19013KT 31/14 A3003 RMK A01 T03110143  RH  036%=      5-min Rain = 0
KBY1 130048Z 19013KT 31/14 A3003 RMK A01 T03110143  RH  036%=      5-min Rain = 0
KBY1 130049Z 20010KT 31/14 A3003 RMK A01 T03110144  RH  036%=      5-min Rain = 0
KBY1 130050Z 19013KT 31/14 A3003 RMK A01 T03110144  RH  036%=      5-min Rain = 0
KBY1 130051Z 20013KT 31/14 A3003 RMK A01 T03110144  RH  036%=      5-min Rain = 0
KBY1 130052Z 20013KT 31/14 A3003 RMK A01 T03110144  RH  036%=      5-min Rain = 0
KBY1 130053Z 20014KT 31/14 A3003 RMK A01 T03100144  RH  036%=      5-min Rain = 0
KBY1 130054Z 20011G16KT 31/15 A3003 RMK A01 T03100145  RH  037%=      5-min Rain = 0
KBY1 130055Z 20013KT 31/15 A3003 RMK A01 T03100145  RH  037%=      5-min Rain = 0
KBY1 130056Z 20014KT 31/15 A3003 RMK A01 T03090145  RH  037%=      5-min Rain = 0
KBY1 130057Z 20011KT 31/15 A3003 RMK A01 T03090145  RH  037%=      5-min Rain = 0
KBY1 130058Z 20012KT 31/15 A3003 RMK A01 T03090145  RH  037%=      5-min Rain = 0
KBY1 130059Z 20013KT 31/15 A3003 RMK A01 T03090145  RH  037%=      5-min Rain = 0
KBY1 130100Z 20012KT 31/14 A3003 RMK A01 T03080144  RH  037%=      5-min Rain = 0
KBY1 130101Z 20013KT 31/14 A3004 RMK A01 T03090144  RH  037%=      5-min Rain = 0
KBY1 130102Z 20012KT 31/14 A3004 RMK A01 T03080144  RH  037%=      5-min Rain = 0
KBY1 130103Z 20011KT 31/14 A3004 RMK A01 T03080143  RH  037%=      5-min Rain = 0
KBY1 130104Z 20010KT 31/14 A3004 RMK A01 T03080144  RH  037%=      5-min Rain = 0
KBY1 130105Z 19012KT 31/14 A3004 RMK A01 T03080143  RH  037%=      5-min Rain = 0
KBY1 130106Z 19012KT 31/14 A3004 RMK A01 T03070143  RH  037%=      5-min Rain = 0
KBY1 130107Z 19010KT 31/14 A3004 RMK A01 T03070144  RH  037%=      5-min Rain = 0
KBY1 130108Z 19010KT 31/14 A3004 RMK A01 T03070144  RH  037%=      5-min Rain = 0
KBY1 130109Z 19011KT 31/14 A3004 RMK A01 T03070144  RH  037%=      5-min Rain = 0
KBY1 130110Z 20012KT 31/14 A3004 RMK A01 T03060144  RH  037%=      5-min Rain = 0
KBY1 130111Z 19013KT 31/14 A3004 RMK A01 T03070144  RH  037%=      5-min Rain = 0
KBY1 130112Z 20011KT 31/14 A3004 RMK A01 T03060143  RH  037%=      5-min Rain = 0
KBY1 130113Z 20011G17KT 31/14 A3004 RMK A01 T03060143  RH  037%=      5-min Rain = 0
KBY1 130114Z 19011KT 31/14 A3004 RMK A01 T03060142  RH  037%=      5-min Rain = 0
KBY1 130115Z 20009KT 31/14 A3004 RMK A01 T03060142  RH  037%=      5-min Rain = 0
KBY1 130116Z 20010KT 31/14 A3004 RMK A01 T03060142  RH  037%=      5-min Rain = 0
KBY1 130117Z 20010KT 31/14 A3004 RMK A01 T03060141  RH  037%=      5-min Rain = 0
KBY1 130118Z 19009KT 31/14 A3004 RMK A01 T03060142  RH  037%=      5-min Rain = 0
KBY1 130119Z 19009KT 31/14 A3004 RMK A01 T03060142  RH  037%=      5-min Rain = 0
KBY1 130120Z 19009KT 31/14 A3004 RMK A01 T03060142  RH  037%=      5-min Rain = 0
KBY1 130121Z 19009KT 31/14 A3004 RMK A01 T03060143  RH  037%=      5-min Rain = 0
KBY1 130122Z 19007KT 31/14 A3004 RMK A01 T03060143  RH  037%=      5-min Rain = 0
KBY1 130123Z 20008KT 31/14 A3004 RMK A01 T03060143  RH  037%=      5-min Rain = 0
KBY1 130124Z 20011KT 31/14 A3004 RMK A01 T03060142  RH  037%=      5-min Rain = 0
KBY1 130125Z 19008KT 31/14 A3004 RMK A01 T03060141  RH  037%=      5-min Rain = 0
KBY1 130126Z 19007KT 31/14 A3004 RMK A01 T03060142  RH  037%=      5-min Rain = 0
KBY1 130127Z 19006KT 31/14 A3004 RMK A01 T03060143  RH  037%=      5-min Rain = 0
KBY1 130128Z 19007KT 31/14 A3004 RMK A01 T03050142  RH  037%=      5-min Rain = 0
KBY1 130129Z 19007KT 31/14 A3004 RMK A01 T03050143  RH  037%=      5-min Rain = 0
KBY1 130130Z 19010KT 30/14 A3004 RMK A01 T03040142  RH  037%=      5-min Rain = 0
KBY1 130131Z 18008KT 30/14 A3004 RMK A01 T03040141  RH  037%=      5-min Rain = 0
KBY1 130132Z 19008KT 30/14 A3004 RMK A01 T03040141  RH  037%=      5-min Rain = 0
KBY1 130133Z 19009KT 30/14 A3004 RMK A01 T03040141  RH  037%=      5-min Rain = 0
KBY1 130134Z 19009KT 30/14 A3004 RMK A01 T03030140  RH  037%=      5-min Rain = 0
KBY1 130135Z 18008KT 30/14 A3004 RMK A01 T03030140  RH  037%=      5-min Rain = 0
KBY1 130136Z 18007KT 30/14 A3005 RMK A01 T03030140  RH  037%=      5-min Rain = 0
KBY1 130137Z 18006KT 30/14 A3005 RMK A01 T03020141  RH  037%=      5-min Rain = 0
KBY1 130138Z 18007KT 30/14 A3004 RMK A01 T03010141  RH  038%=      5-min Rain = 0
KBY1 130139Z 18006KT 30/14 A3005 RMK A01 T03000140  RH  038%=      5-min Rain = 0
KBY1 130140Z 18007KT 30/14 A3005 RMK A01 T02990140  RH  038%=      5-min Rain = 0
KBY1 130141Z 18006KT 30/14 A3005 RMK A01 T02990140  RH  038%=      5-min Rain = 0
KBY1 130142Z 18007KT 30/14 A3005 RMK A01 T02980140  RH  038%=      5-min Rain = 0
KBY1 130143Z 19007KT 30/14 A3005 RMK A01 T02980140  RH  038%=      5-min Rain = 0
KBY1 130144Z 18007KT 30/14 A3005 RMK A01 T02980140  RH  038%=      5-min Rain = 0
KBY1 130145Z 18008KT 30/14 A3005 RMK A01 T02970139  RH  038%=      5-min Rain = 0
KBY1 130146Z 18009KT 30/14 A3005 RMK A01 T02980139  RH  038%=      5-min Rain = 0
KBY1 130147Z 18007KT 30/14 A3005 RMK A01 T02980139  RH  038%=      5-min Rain = 0
KBY1 130148Z 18007KT 30/14 A3005 RMK A01 T02970140  RH  038%=      5-min Rain = 0
KBY1 130149Z 18006KT 30/14 A3005 RMK A01 T02970139  RH  038%=      5-min Rain = 0
KBY1 130150Z 18007KT 30/14 A3005 RMK A01 T02960139  RH  038%=      5-min Rain = 0
KBY1 130151Z 18006KT 30/14 A3005 RMK A01 T02960139  RH  038%=      5-min Rain = 0
KBY1 130152Z 18006KT 30/14 A3005 RMK A01 T02950139  RH  038%=      5-min Rain = 0
KBY1 130153Z 18005KT 30/14 A3005 RMK A01 T02950140  RH  039%=      5-min Rain = 0
KBY1 130154Z 18004KT 29/14 A3005 RMK A01 T02940140  RH  039%=      5-min Rain = 0
KBY1 130155Z 18004KT 29/14 A3005 RMK A01 T02920140  RH  039%=      5-min Rain = 0
KBY1 130156Z 18004KT 29/14 A3005 RMK A01 T02910140  RH  040%=      5-min Rain = 0
KBY1 130157Z 18005KT 29/14 A3005 RMK A01 T02910140  RH  040%=      5-min Rain = 0
KBY1 130158Z 18005KT 29/14 A3005 RMK A01 T02900140  RH  040%=      5-min Rain = 0
KBY1 130159Z 17005KT 29/14 A3005 RMK A01 T02900140  RH  040%=      5-min Rain = 0
KBY1 130200Z 18005KT 29/14 A3005 RMK A01 T02900140  RH  040%=      5-min Rain = 0
KBY1 130201Z 17004KT 29/14 A3005 RMK A01 T02900141  RH  040%=      5-min Rain = 0
KBY1 130202Z 18004KT 29/14 A3006 RMK A01 T02890141  RH  040%=      5-min Rain = 0
KBY1 130203Z 18005KT 29/14 A3006 RMK A01 T02880141  RH  041%=      5-min Rain = 0
KBY1 130204Z 18004KT 29/14 A3006 RMK A01 T02880141  RH  041%=      5-min Rain = 0
KBY1 130205Z 17004KT 29/14 A3006 RMK A01 T02880141  RH  041%=      5-min Rain = 0
KBY1 130206Z 17005KT 29/14 A3006 RMK A01 T02870142  RH  041%=      5-min Rain = 0
KBY1 130207Z 18005KT 29/14 A3006 RMK A01 T02870142  RH  041%=      5-min Rain = 0
KBY1 130208Z 17004KT 29/14 A3006 RMK A01 T02870142  RH  041%=      5-min Rain = 0
KBY1 130209Z 18005KT 29/14 A3006 RMK A01 T02860142  RH  041%=      5-min Rain = 0
KBY1 130210Z 17004KT 29/14 A3006 RMK A01 T02850142  RH  041%=      5-min Rain = 0
KBY1 130211Z 18004KT 29/14 A3006 RMK A01 T02850142  RH  042%=      5-min Rain = 0
KBY1 130212Z 18004KT 28/14 A3006 RMK A01 T02840142  RH  042%=      5-min Rain = 0
KBY1 130213Z 18006KT 28/14 A3006 RMK A01 T02830142  RH  042%=      5-min Rain = 0
KBY1 130214Z 17005KT 28/14 A3006 RMK A01 T02830142  RH  042%=      5-min Rain = 0
KBY1 130215Z 18005KT 28/14 A3006 RMK A01 T02830141  RH  042%=      5-min Rain = 0
KBY1 130216Z 18006KT 28/14 A3006 RMK A01 T02840142  RH  042%=      5-min Rain = 0
KBY1 130217Z 18006KT 28/14 A3006 RMK A01 T02840142  RH  042%=      5-min Rain = 0
KBY1 130218Z 18005KT 28/14 A3006 RMK A01 T02840142  RH  042%=      5-min Rain = 0
KBY1 130219Z 18005KT 28/14 A3006 RMK A01 T02840142  RH  042%=      5-min Rain = 0
KBY1 130220Z 18006KT 28/14 A3006 RMK A01 T02840142  RH  042%=      5-min Rain = 0
KBY1 130221Z 18006KT 28/14 A3006 RMK A01 T02830142  RH  042%=      5-min Rain = 0
KBY1 130222Z 18007KT 28/14 A3006 RMK A01 T02830142  RH  042%=      5-min Rain = 0
KBY1 130223Z 18006KT 28/14 A3006 RMK A01 T02830141  RH  042%=      5-min Rain = 0
KBY1 130224Z 18005KT 29/14 A3006 RMK A01 T02850142  RH  042%=      5-min Rain = 0
KBY1 130225Z 19006KT 28/14 A3006 RMK A01 T02840142  RH  042%=      5-min Rain = 0
KBY1 130226Z 18006KT 28/14 A3006 RMK A01 T02830142  RH  042%=      5-min Rain = 0
KBY1 130227Z 19004KT 28/14 A3006 RMK A01 T02830142  RH  042%=      5-min Rain = 0
KBY1 130228Z 18005KT 28/14 A3006 RMK A01 T02820142  RH  042%=      5-min Rain = 0
KBY1 130229Z 18006KT 28/14 A3006 RMK A01 T02810142  RH  043%=      5-min Rain = 0
KBY1 130230Z 18005KT 28/14 A3006 RMK A01 T02800142  RH  043%=      5-min Rain = 0
KBY1 130231Z 18005KT 28/14 A3006 RMK A01 T02800142  RH  043%=      5-min Rain = 0
KBY1 130232Z 18005KT 28/14 A3006 RMK A01 T02790141  RH  043%=      5-min Rain = 0
KBY1 130233Z 18005KT 28/14 A3006 RMK A01 T02800141  RH  043%=      5-min Rain = 0
KBY1 130234Z 18004KT 28/14 A3006 RMK A01 T02800141  RH  043%=      5-min Rain = 0
KBY1 130235Z 17005KT 28/14 A3006 RMK A01 T02800142  RH  043%=      5-min Rain = 0
KBY1 130236Z 17004KT 28/14 A3006 RMK A01 T02800142  RH  043%=      5-min Rain = 0
KBY1 130237Z 18004KT 28/14 A3006 RMK A01 T02800142  RH  043%=      5-min Rain = 0
KBY1 130238Z 17004KT 28/14 A3006 RMK A01 T02790142  RH  043%=      5-min Rain = 0
KBY1 130239Z 18005KT 28/14 A3007 RMK A01 T02790142  RH  043%=      5-min Rain = 0
KBY1 130240Z 17004KT 28/14 A3007 RMK A01 T02790142  RH  043%=      5-min Rain = 0
KBY1 130241Z 16003KT 28/14 A3007 RMK A01 T02780142  RH  043%=      5-min Rain = 0
KBY1 130242Z 16003KT 28/14 A3007 RMK A01 T02770142  RH  043%=      5-min Rain = 0
KBY1 130243Z 16003KT 28/14 A3007 RMK A01 T02770142  RH  044%=      5-min Rain = 0
KBY1 130244Z 16003KT 28/14 A3007 RMK A01 T02760142  RH  044%=      5-min Rain = 0
KBY1 130245Z 16003KT 28/14 A3007 RMK A01 T02760142  RH  044%=      5-min Rain = 0
KBY1 130246Z 16004KT 28/14 A3007 RMK A01 T02750142  RH  044%=      5-min Rain = 0
KBY1 130247Z 16004KT 28/14 A3007 RMK A01 T02750142  RH  044%=      5-min Rain = 0
KBY1 130248Z 16004KT 28/14 A3007 RMK A01 T02750142  RH  044%=      5-min Rain = 0
KBY1 130249Z 15004KT 28/14 A3007 RMK A01 T02750142  RH  044%=      5-min Rain = 0
KBY1 130250Z 13004KT 28/14 A3007 RMK A01 T02750142  RH  044%=      5-min Rain = 0
KBY1 130251Z 13004KT 28/14 A3007 RMK A01 T02750142  RH  044%=      5-min Rain = 0
KBY1 130252Z 13004KT 28/14 A3007 RMK A01 T02750143  RH  044%=      5-min Rain = 0
KBY1 130253Z 14004KT 27/14 A3007 RMK A01 T02740143  RH  044%=      5-min Rain = 0
KBY1 130254Z 14002KT 27/14 A3007 RMK A01 T02740143  RH  045%=      5-min Rain = 0
KBY1 130255Z 16003KT 27/14 A3007 RMK A01 T02740143  RH  045%=      5-min Rain = 0
KBY1 130256Z 16003KT 27/14 A3007 RMK A01 T02740143  RH  045%=      5-min Rain = 0
KBY1 130257Z 16003KT 27/14 A3007 RMK A01 T02740143  RH  045%=      5-min Rain = 0
KBY1 130258Z 17003KT 28/14 A3008 RMK A01 T02750143  RH  044%=      5-min Rain = 0
KBY1 130259Z 17003KT 28/14 A3008 RMK A01 T02750143  RH  044%=      5-min Rain = 0
KBY1 130300Z 17003KT 28/14 A3008 RMK A01 T02750143  RH  044%=      5-min Rain = 0
KBY1 130301Z 18003KT 28/14 A3008 RMK A01 T02750144  RH  045%=      5-min Rain = 0
KBY1 130302Z 18003KT 27/14 A3008 RMK A01 T02740144  RH  045%=      5-min Rain = 0
KBY1 130303Z 17003KT 27/14 A3008 RMK A01 T02730144  RH  045%=      5-min Rain = 0
KBY1 130304Z 17004KT 27/14 A3008 RMK A01 T02730144  RH  045%=      5-min Rain = 0
KBY1 130305Z 17003KT 27/14 A3008 RMK A01 T02730144  RH  045%=      5-min Rain = 0
KBY1 130306Z 18003KT 27/14 A3008 RMK A01 T02730144  RH  045%=      5-min Rain = 0
KBY1 130307Z 16003KT 27/14 A3009 RMK A01 T02730144  RH  045%=      5-min Rain = 0
KBY1 130308Z 17003KT 27/15 A3009 RMK A01 T02730145  RH  045%=      5-min Rain = 0
KBY1 130309Z 17004KT 27/15 A3009 RMK A01 T02720145  RH  046%=      5-min Rain = 0
KBY1 130310Z 16004KT 27/15 A3009 RMK A01 T02710145  RH  046%=      5-min Rain = 0
KBY1 130311Z 16003KT 27/15 A3009 RMK A01 T02710145  RH  046%=      5-min Rain = 0
KBY1 130312Z 17003KT 27/15 A3009 RMK A01 T02710146  RH  046%=      5-min Rain = 0
KBY1 130313Z 17003KT 27/15 A3009 RMK A01 T02710146  RH  046%=      5-min Rain = 0
KBY1 130314Z 17003KT 27/15 A3009 RMK A01 T02710146  RH  046%=      5-min Rain = 0
KBY1 130315Z 17002KT 27/15 A3009 RMK A01 T02710146  RH  046%=      5-min Rain = 0
KBY1 130316Z 17003KT 27/15 A3009 RMK A01 T02700147  RH  047%=      5-min Rain = 0
KBY1 130317Z 16003KT 27/15 A3009 RMK A01 T02700147  RH  047%=      5-min Rain = 0
KBY1 130318Z 16004KT 27/15 A3009 RMK A01 T02710148  RH  047%=      5-min Rain = 0
KBY1 130319Z 18005KT 27/15 A301 RMK A01 T02700148  RH  047%=      5-min Rain = 0
KBY1 130320Z 17004KT 27/15 A301 RMK A01 T02710149  RH  047%=      5-min Rain = 0
KBY1 130321Z 17004KT 27/15 A301 RMK A01 T02710149  RH  047%=      5-min Rain = 0
KBY1 130322Z 16004KT 27/15 A301 RMK A01 T02710150  RH  047%=      5-min Rain = 0
KBY1 130323Z 15004KT 27/15 A301 RMK A01 T02710150  RH  048%=      5-min Rain = 0
KBY1 130324Z 15005KT 27/15 A301 RMK A01 T02710150  RH  048%=      5-min Rain = 0
KBY1 130325Z 17005KT 27/15 A301 RMK A01 T02710152  RH  048%=      5-min Rain = 0
KBY1 130326Z 16005KT 27/15 A301 RMK A01 T02710153  RH  048%=      5-min Rain = 0
KBY1 130327Z 17005KT 27/15 A301 RMK A01 T02710153  RH  048%=      5-min Rain = 0
KBY1 130328Z 16004KT 27/15 A301 RMK A01 T02710153  RH  049%=      5-min Rain = 0
KBY1 130329Z 16005KT 27/15 A301 RMK A01 T02710154  RH  049%=      5-min Rain = 0
KBY1 130330Z 16004KT 27/15 A301 RMK A01 T02710154  RH  049%=      5-min Rain = 0
KBY1 130331Z 16006KT 27/16 A301 RMK A01 T02710155  RH  049%=      5-min Rain = 0
KBY1 130332Z 15006KT 27/16 A301 RMK A01 T02710155  RH  049%=      5-min Rain = 0
KBY1 130333Z 14005KT 27/16 A301 RMK A01 T02710156  RH  049%=      5-min Rain = 0
KBY1 130334Z 15006KT 27/16 A301 RMK A01 T02710156  RH  049%=      5-min Rain = 0
KBY1 130335Z 15005KT 27/16 A301 RMK A01 T02710157  RH  050%=      5-min Rain = 0
KBY1 130336Z 14006KT 27/16 A3011 RMK A01 T02710157  RH  050%=      5-min Rain = 0
KBY1 130337Z 14007KT 27/16 A3011 RMK A01 T02710158  RH  050%=      5-min Rain = 0
KBY1 130338Z 14008KT 27/16 A3011 RMK A01 T02720159  RH  050%=      5-min Rain = 0
KBY1 130339Z 14007KT 27/16 A3011 RMK A01 T02720159  RH  050%=      5-min Rain = 0
KBY1 130340Z 14005KT 27/16 A3011 RMK A01 T02720160  RH  050%=      5-min Rain = 0
KBY1 130341Z 14006KT 27/16 A3011 RMK A01 T02710159  RH  050%=      5-min Rain = 0
KBY1 130342Z 14004KT 27/16 A3011 RMK A01 T02710159  RH  050%=      5-min Rain = 0
KBY1 130343Z 14005KT 27/16 A3011 RMK A01 T02710160  RH  051%=      5-min Rain = 0
KBY1 130344Z 14007KT 27/16 A3011 RMK A01 T02700160  RH  051%=      5-min Rain = 0
KBY1 130345Z 14006KT 27/16 A3011 RMK A01 T02700161  RH  051%=      5-min Rain = 0
KBY1 130346Z 14004KT 27/16 A3011 RMK A01 T02700161  RH  051%=      5-min Rain = 0
KBY1 130347Z 14007KT 27/16 A3011 RMK A01 T02690161  RH  052%=      5-min Rain = 0
KBY1 130348Z 15005KT 27/16 A3011 RMK A01 T02690161  RH  052%=      5-min Rain = 0
KBY1 130349Z 16005KT 27/16 A3011 RMK A01 T02680161  RH  052%=      5-min Rain = 0
KBY1 130350Z 16005KT 27/16 A3011 RMK A01 T02680162  RH  052%=      5-min Rain = 0
KBY1 130351Z 16006KT 27/16 A3011 RMK A01 T02680162  RH  052%=      5-min Rain = 0
KBY1 130352Z 16006KT 27/16 A3011 RMK A01 T02670162  RH  053%=      5-min Rain = 0
KBY1 130353Z 16006KT 27/16 A3011 RMK A01 T02670162  RH  053%=      5-min Rain = 0
KBY1 130354Z 16005KT 27/16 A3011 RMK A01 T02660162  RH  053%=      5-min Rain = 0
KBY1 130355Z 16005KT 27/16 A3012 RMK A01 T02650162  RH  053%=      5-min Rain = 0
KBY1 130356Z 15005KT 27/16 A3012 RMK A01 T02650163  RH  053%=      5-min Rain = 0
KBY1 130357Z 15006KT 27/16 A3012 RMK A01 T02650163  RH  053%=      5-min Rain = 0
KBY1 130358Z 16007KT 27/16 A3012 RMK A01 T02650163  RH  053%=      5-min Rain = 0
KBY1 130359Z 14004KT 27/16 A3012 RMK A01 T02650163  RH  053%=      5-min Rain = 0
KBY1 130400Z 15004KT 26/16 A3012 RMK A01 T02640163  RH  054%=      5-min Rain = 0
KBY1 130401Z 14005KT 26/16 A3012 RMK A01 T02640163  RH  054%=      5-min Rain = 0
KBY1 130402Z 15007KT 26/16 A3012 RMK A01 T02640163  RH  054%=      5-min Rain = 0
KBY1 130403Z 15005KT 26/16 A3012 RMK A01 T02630163  RH  054%=      5-min Rain = 0
KBY1 130404Z 15005KT 26/16 A3012 RMK A01 T02640163  RH  054%=      5-min Rain = 0
KBY1 130405Z 15004KT 26/16 A3012 RMK A01 T02640163  RH  054%=      5-min Rain = 0
KBY1 130406Z 16003KT 26/16 A3012 RMK A01 T02630163  RH  054%=      5-min Rain = 0
KBY1 130407Z 15003KT 26/16 A3012 RMK A01 T02630163  RH  054%=      5-min Rain = 0
KBY1 130408Z 15002KT 26/16 A3012 RMK A01 T02620163  RH  054%=      5-min Rain = 0
KBY1 130409Z 16003KT 26/16 A3012 RMK A01 T02620163  RH  055%=      5-min Rain = 0
KBY1 130410Z 15003KT 26/16 A3012 RMK A01 T02610163  RH  055%=      5-min Rain = 0
KBY1 130411Z 16003KT 26/16 A3012 RMK A01 T02610163  RH  055%=      5-min Rain = 0
KBY1 130412Z 16005KT 26/16 A3012 RMK A01 T02610164  RH  055%=      5-min Rain = 0
KBY1 130413Z 16005KT 26/16 A3012 RMK A01 T02600163  RH  055%=      5-min Rain = 0
KBY1 130414Z 14004KT 26/16 A3012 RMK A01 T02600163  RH  055%=      5-min Rain = 0
KBY1 130415Z 16006KT 26/16 A3012 RMK A01 T02600163  RH  055%=      5-min Rain = 0
KBY1 130416Z 15006KT 26/16 A3012 RMK A01 T02600163  RH  055%=      5-min Rain = 0
KBY1 130417Z 16006KT 26/16 A3012 RMK A01 T02600163  RH  055%=      5-min Rain = 0
KBY1 130418Z 15005KT 26/16 A3012 RMK A01 T02600163  RH  055%=      5-min Rain = 0
KBY1 130419Z 15005KT 26/16 A3012 RMK A01 T02600164  RH  055%=      5-min Rain = 0
KBY1 130420Z 15005KT 26/16 A3012 RMK A01 T02610164  RH  055%=      5-min Rain = 0
KBY1 130421Z 16004KT 26/16 A3012 RMK A01 T02600164  RH  055%=      5-min Rain = 0
KBY1 130422Z 14004KT 26/16 A3012 RMK A01 T02600164  RH  055%=      5-min Rain = 0
KBY1 130423Z 15005KT 26/16 A3012 RMK A01 T02600164  RH  055%=      5-min Rain = 0
KBY1 130424Z 15005KT 26/16 A3012 RMK A01 T02600164  RH  055%=      5-min Rain = 0
KBY1 130425Z 15005KT 26/16 A3012 RMK A01 T02600163  RH  055%=      5-min Rain = 0
KBY1 130426Z 16006KT 26/16 A3012 RMK A01 T02600164  RH  055%=      5-min Rain = 0
KBY1 130427Z 15006KT 26/16 A3012 RMK A01 T02600164  RH  055%=      5-min Rain = 0
KBY1 130428Z 15005KT 26/16 A3012 RMK A01 T02600164  RH  055%=      5-min Rain = 0
KBY1 130429Z 16004KT 26/16 A3012 RMK A01 T02610164  RH  055%=      5-min Rain = 0
KBY1 130430Z 15005KT 26/16 A3011 RMK A01 T02610164  RH  055%=      5-min Rain = 0
KBY1 130431Z 15005KT 26/16 A3011 RMK A01 T02610164  RH  055%=      5-min Rain = 0
KBY1 130432Z 15005KT 26/16 A3011 RMK A01 T02610164  RH  055%=      5-min Rain = 0
KBY1 130433Z 15008KT 26/16 A3011 RMK A01 T02610164  RH  055%=      5-min Rain = 0
KBY1 130434Z 15006KT 26/16 A3011 RMK A01 T02610164  RH  055%=      5-min Rain = 0
KBY1 130435Z 16005KT 26/16 A3012 RMK A01 T02610164  RH  055%=      5-min Rain = 0
KBY1 130436Z 15003G8KT 26/16 A3012 RMK A01 T02610164  RH  055%=      5-min Rain = 0
KBY1 130437Z 16006KT 26/16 A3012 RMK A01 T02610164  RH  055%=      5-min Rain = 0
KBY1 130438Z 15004KT 26/16 A3012 RMK A01 T02610164  RH  055%=      5-min Rain = 0
KBY1 130439Z 14004KT 26/16 A3012 RMK A01 T02610164  RH  055%=      5-min Rain = 0
KBY1 130440Z 15005KT 26/16 A3012 RMK A01 T02600164  RH  055%=      5-min Rain = 0
KBY1 130441Z 15003KT 26/16 A3012 RMK A01 T02600164  RH  055%=      5-min Rain = 0
KBY1 130442Z 14004KT 26/16 A3012 RMK A01 T02600164  RH  055%=      5-min Rain = 0
KBY1 130443Z 14005KT 26/16 A3012 RMK A01 T02600164  RH  055%=      5-min Rain = 0
KBY1 130444Z 15003KT 26/16 A3012 RMK A01 T02600164  RH  055%=      5-min Rain = 0
KBY1 130445Z 14005KT 26/16 A3012 RMK A01 T02600164  RH  055%=      5-min Rain = 0
KBY1 130446Z 15004KT 26/16 A3012 RMK A01 T02600164  RH  055%=      5-min Rain = 0
KBY1 130447Z 14004KT 26/16 A3012 RMK A01 T02600164  RH  055%=      5-min Rain = 0
KBY1 130448Z 14005KT 26/16 A3012 RMK A01 T02600164  RH  055%=      5-min Rain = 0
KBY1 130449Z 14004KT 26/16 A3012 RMK A01 T02600164  RH  055%=      5-min Rain = 0
KBY1 130450Z 14005KT 26/16 A3012 RMK A01 T02600164  RH  055%=      5-min Rain = 0
KBY1 130451Z 15005KT 26/16 A3012 RMK A01 T02600163  RH  055%=      5-min Rain = 0
KBY1 130452Z 15007KT 26/16 A3011 RMK A01 T02600164  RH  055%=      5-min Rain = 0
KBY1 130453Z 13005KT 26/16 A3011 RMK A01 T02600164  RH  055%=      5-min Rain = 0
KBY1 130454Z 13004KT 26/16 A3011 RMK A01 T02600164  RH  055%=      5-min Rain = 0
KBY1 130455Z 14005KT 26/16 A3011 RMK A01 T02600164  RH  055%=      5-min Rain = 0
KBY1 130456Z 14005KT 26/16 A3011 RMK A01 T02600164  RH  055%=      5-min Rain = 0
KBY1 130457Z 15005KT 26/16 A3011 RMK A01 T02590164  RH  055%=      5-min Rain = 0
KBY1 130458Z 14004KT 26/16 A3011 RMK A01 T02600164  RH  055%=      5-min Rain = 0
KBY1 130459Z 14003KT 26/16 A3011 RMK A01 T02590164  RH  056%=      5-min Rain = 0

Page generated in 0.0345 seconds.